M I D A S
Marine Information and Data Acquisition System
Tripno 487 of the Zeeleeuw from 2003-04-08 07:50:36 to 2003-04-08 14:24:24
Back to CruiseResearch ActivitiesStationsMapUnderway DataData graphs

EquipmentUnitsComment
TimeDGPSUTC
LatitudeDGPSDM.mWGS84
LongitudeDGPSDM.mWGS84
TemperatureSBE03/SBE38deg celciusITS90
ConductivitySBE21S/mITS90
SalinitySBE21 Practical Salinity Units
ChlorophylAChelsea fluorimeterg/lCalibrated in Aceton
Missing or incorrect values are displayed as -999
Sea surface data collected by the RV Zeeleeuw from 2003-04-08 07:50:36 to 2003-04-08 14:24:24
                                                                                    Next 1000 lines
Time Latitude Longitude Temperature Conductivity Salinity ChlorophylA
2003-04-08 07:50:44 51°13.599 2°56.104 11.744116 3.53284 29.206109 -0.882377
2003-04-08 07:50:48 51°13.599 2°56.104 11.744207 3.532735 29.206321 -0.882377
2003-04-08 07:50:54 51°13.599 2°56.103 11.744207 3.532735 29.206321 -0.882377
2003-04-08 07:50:58 51°13.598 2°56.102 11.744801 3.53263 29.205354 -0.848668
2003-04-08 07:51:04 51°13.598 2°56.101 11.745257 3.53263 29.205943 -0.882377
2003-04-08 07:51:08 51°13.598 2°56.101 11.745897 3.532524 29.205566 -0.916087
2003-04-08 07:51:14 51°13.599 2°56.101 11.746719 3.532524 29.205566 -0.882377
2003-04-08 07:51:18 51°13.599 2°56.101 11.747632 3.532524 29.205566 -0.882377
2003-04-08 07:51:24 51°13.6 2°56.102 11.747632 3.532524 29.205566 -0.882377
2003-04-08 07:51:28 51°13.6 2°56.101 11.755807 3.532524 29.206155 -0.882377
2003-04-08 07:51:34 51°13.6 2°56.098 11.758136 3.532419 29.206367 -0.882377
2003-04-08 07:51:39 51°13.601 2°56.096 11.746582 3.532419 29.206367 -0.848668
2003-04-08 07:51:44 51°13.601 2°56.092 11.755807 3.532314 29.205401 -0.882377
2003-04-08 07:51:48 51°13.602 2°56.088 11.757177 3.532208 29.205613 -0.882377
2003-04-08 07:51:55 51°13.603 2°56.081 11.757177 3.532208 29.205613 -0.882377
2003-04-08 07:52:00 51°13.604 2°56.076 11.755716 3.532314 29.206579 -0.848668
2003-04-08 07:52:04 51°13.605 2°56.07 11.757953 3.532208 29.206791 -0.882377
2003-04-08 07:52:10 51°13.607 2°56.061 11.758318 3.532208 29.206202 -0.848668
2003-04-08 07:52:15 51°13.608 2°56.053 11.75841 3.532103 29.206414 -0.882377
2003-04-08 07:52:20 51°13.61 2°56.046 11.758912 3.532103 29.206414 -0.882377
2003-04-08 07:52:24 51°13.611 2°56.039 11.758912 3.532103 29.206414 -0.882377
2003-04-08 07:52:30 51°13.615 2°56.03 11.758638 3.531998 29.206037 -0.848668
2003-04-08 07:52:35 51°13.617 2°56.021 11.759551 3.531998 29.206626 -0.882377
2003-04-08 07:52:40 51°13.619 2°56.012 11.758684 3.531892 29.206249 -0.882377
2003-04-08 07:52:45 51°13.621 2°56.003 11.756903 3.531892 29.206838 -0.882377
2003-04-08 07:52:50 51°13.623 2°55.993 11.758181 3.531892 29.206838 -0.882377
2003-04-08 07:52:55 51°13.625 2°55.982 11.758181 3.531892 29.206838 -0.882377
2003-04-08 07:53:00 51°13.627 2°55.971 11.757816 3.531787 29.206461 -0.882377
2003-04-08 07:53:04 51°13.628 2°55.962 11.757816 3.531787 29.20705 -0.848668
2003-04-08 07:53:10 51°13.631 2°55.949 11.754437 3.531787 29.20764 -0.882377
2003-04-08 07:53:15 51°13.634 2°55.937 11.755533 3.531682 29.206673 -0.882377
2003-04-08 07:53:20 51°13.637 2°55.926 11.757268 3.531576 29.206885 -0.916087
2003-04-08 07:53:24 51°13.64 2°55.917 11.757268 3.531576 29.206885 -0.916087
2003-04-08 07:53:30 51°13.643 2°55.904 11.758455 3.531576 29.206885 -0.882377
2003-04-08 07:53:35 51°13.647 2°55.894 11.757953 3.531576 29.208064 -0.882377
2003-04-08 07:53:40 51°13.65 2°55.884 11.75914 3.531471 29.207687 -0.882377
2003-04-08 07:53:44 51°13.653 2°55.876 11.759506 3.531366 29.20672 -0.882377
2003-04-08 07:53:50 51°13.656 2°55.865 11.760282 3.531366 29.20672 -0.882377
2003-04-08 07:53:55 51°13.659 2°55.855 11.760282 3.531366 29.20672 -0.882377
2003-04-08 07:54:00 51°13.662 2°55.845 11.76051 3.531366 29.20731 -0.882377
2003-04-08 07:54:04 51°13.664 2°55.838 11.761515 3.531366 29.207899 -0.882377
2003-04-08 07:54:09 51°13.667 2°55.828 11.762885 3.53126 29.206343 -0.882377
2003-04-08 07:54:14 51°13.669 2°55.819 11.76325 3.531366 29.20731 -0.882377
2003-04-08 07:54:18 51°13.671 2°55.813 11.764254 3.531155 29.206555 -0.882377
2003-04-08 07:54:24 51°13.673 2°55.803 11.764254 3.531155 29.206555 -0.882377
2003-04-08 07:54:28 51°13.674 2°55.796 11.761789 3.531155 29.207145 -0.882377
2003-04-08 07:54:34 51°13.676 2°55.786 11.76325 3.53105 29.206767 -0.882377
2003-04-08 07:54:39 51°13.677 2°55.778 11.764117 3.53105 29.206767 -0.882377
2003-04-08 07:54:44 51°13.678 2°55.772 11.765579 3.53105 29.206767 -0.848668
2003-04-08 07:54:48 51°13.679 2°55.767 11.765396 3.53105 29.207947 -0.882377
2003-04-08 07:54:54 51°13.68 2°55.763 11.765396 3.53105 29.207947 -0.882377
2003-04-08 07:54:58 51°13.681 2°55.761 11.764711 3.530944 29.20698 -0.916087
2003-04-08 07:55:04 51°13.682 2°55.759 11.76535 3.530944 29.207569 -0.882377
2003-04-08 07:55:08 51°13.683 2°55.759 11.765579 3.530839 29.206602 -0.916087
2003-04-08 07:55:14 51°13.683 2°55.758 11.766948 3.530839 29.207192 -0.848668
2003-04-08 07:55:18 51°13.684 2°55.758 11.766629 3.530734 29.206815 -0.848668
2003-04-08 07:55:24 51°13.685 2°55.76 11.766629 3.530734 29.206815 -0.848668
2003-04-08 07:55:28 51°13.686 2°55.762 11.764483 3.530734 29.207994 -0.882377
2003-04-08 07:55:34 51°13.689 2°55.764 11.765761 3.530734 29.209173 -0.882377
2003-04-08 07:55:38 51°13.69 2°55.766 11.767816 3.530628 29.208206 -0.882377
2003-04-08 07:55:44 51°13.692 2°55.769 11.769551 3.530628 29.209386 -0.848668
2003-04-08 07:55:48 51°13.694 2°55.77 11.769916 3.530628 29.209975 -0.848668
2003-04-08 07:55:54 51°13.697 2°55.772 11.769916 3.530628 29.209975 -0.848668
2003-04-08 07:55:59 51°13.7 2°55.773 11.768957 3.530523 29.209598 -0.848668
2003-04-08 07:56:04 51°13.703 2°55.774 11.769368 3.530523 29.209598 -0.882377
2003-04-08 07:56:08 51°13.705 2°55.774 11.769642 3.530418 29.208631 -0.882377
2003-04-08 07:56:14 51°13.709 2°55.775 11.772655 3.530418 29.209221 -0.916087
2003-04-08 07:56:19 51°13.712 2°55.776 11.775303 3.530312 29.207664 -0.882377
2003-04-08 07:56:24 51°13.715 2°55.775 11.775303 3.530312 29.207664 -0.882377
2003-04-08 07:56:28 51°13.716 2°55.774 11.776444 3.530312 29.207664 -0.882377
2003-04-08 07:56:34 51°13.718 2°55.773 11.77512 3.530312 29.207664 -0.916087
2003-04-08 07:56:39 51°13.718 2°55.773 11.775394 3.530207 29.206697 -0.882377
2003-04-08 07:56:44 51°13.718 2°55.773 11.780142 3.530207 29.207287 -0.916087
2003-04-08 07:56:48 51°13.717 2°55.773 11.773568 3.530207 29.206697 -0.916087
2003-04-08 07:56:54 51°13.716 2°55.773 11.773568 3.530207 29.206697 -0.916087
2003-04-08 07:56:59 51°13.714 2°55.773 11.775623 3.530102 29.20632 -0.882377
2003-04-08 07:57:04 51°13.712 2°55.773 11.773477 3.530207 29.207877 -0.882377
2003-04-08 07:57:10 51°13.709 2°55.773 11.774573 3.530207 29.207877 -0.882377
2003-04-08 07:57:14 51°13.708 2°55.773 11.771879 3.529996 29.205943 -0.882377
2003-04-08 07:57:20 51°13.706 2°55.773 11.773705 3.529891 29.204975 -0.916087
2003-04-08 07:57:24 51°13.706 2°55.773 11.773705 3.529891 29.204975 -0.916087
2003-04-08 07:57:28 51°13.706 2°55.773 11.773705 3.529891 29.204975 -0.882377
2003-04-08 07:57:34 51°13.706 2°55.772 11.773157 3.529891 29.205565 -0.848668
2003-04-08 07:57:38 51°13.707 2°55.77 11.769185 3.529785 29.205188 -0.882377
2003-04-08 07:57:44 51°13.71 2°55.768 11.769094 3.529785 29.205188 -0.882377
2003-04-08 07:57:48 51°13.712 2°55.766 11.770099 3.52968 29.2054 -0.882377
2003-04-08 07:57:54 51°13.717 2°55.761 11.770099 3.52968 29.2054 -0.882377
2003-04-08 07:57:58 51°13.72 2°55.757 11.771194 3.529785 29.206367 -0.882377
2003-04-08 07:58:04 51°13.726 2°55.751 11.77197 3.52968 29.20599 -0.882377
2003-04-08 07:58:08 51°13.731 2°55.746 11.773249 3.52968 29.20658 -0.848668
2003-04-08 07:58:14 51°13.737 2°55.739 11.775486 3.529575 29.206202 -0.882377
2003-04-08 07:58:18 51°13.742 2°55.733 11.779138 3.529469 29.205825 -0.916087
2003-04-08 07:58:24 51°13.749 2°55.725 11.779138 3.529469 29.205825 -0.916087
2003-04-08 07:58:28 51°13.754 2°55.719 11.783018 3.529469 29.206415 -0.882377
2003-04-08 07:58:34 51°13.761 2°55.709 11.783566 3.529469 29.207005 -0.882377
2003-04-08 07:58:38 51°13.767 2°55.703 11.784022 3.529364 29.205448 -0.882377
2003-04-08 07:58:44 51°13.775 2°55.693 11.785163 3.529364 29.206627 -0.882377
2003-04-08 07:58:48 51°13.78 2°55.686 11.785848 3.529259 29.20625 -0.882377
2003-04-08 07:58:54 51°13.789 2°55.676 11.785848 3.529259 29.20625 -0.882377
2003-04-08 07:58:58 51°13.796 2°55.67 11.785711 3.529259 29.20625 -0.848668
2003-04-08 07:59:04 51°13.805 2°55.66 11.785848 3.529259 29.20684 -0.882377
2003-04-08 07:59:08 51°13.811 2°55.654 11.785665 3.529259 29.20743 -0.882377
2003-04-08 07:59:14 51°13.821 2°55.644 11.784068 3.529153 29.205873 -0.882377
2003-04-08 07:59:18 51°13.828 2°55.637 11.784113 3.529153 29.207052 -0.882377
2003-04-08 07:59:24 51°13.839 2°55.628 11.784113 3.529153 29.207052 -0.882377
2003-04-08 07:59:28 51°13.845 2°55.622 11.781557 3.529048 29.206085 -0.882377
2003-04-08 07:59:34 51°13.856 2°55.613 11.783931 3.529048 29.206675 -0.916087
2003-04-08 07:59:38 51°13.865 2°55.607 11.785848 3.529048 29.207265 -0.882377
2003-04-08 07:59:44 51°13.876 2°55.599 11.786761 3.528943 29.206888 -0.848668
2003-04-08 07:59:48 51°13.883 2°55.593 11.787263 3.528837 29.20651 -0.848668
2003-04-08 07:59:54 51°13.894 2°55.585 11.787263 3.528837 29.20651 -0.848668
2003-04-08 07:59:58 51°13.902 2°55.579 11.786989 3.528837 29.2071 -0.916087
2003-04-08 08:00:04 51°13.913 2°55.571 11.787902 3.528837 29.2071 -0.848668
2003-04-08 08:00:08 51°13.921 2°55.565 11.788267 3.528837 29.20828 -0.882377
2003-04-08 08:00:14 51°13.932 2°55.557 11.788632 3.528732 29.207313 -0.882377
2003-04-08 08:00:19 51°13.941 2°55.55 11.790229 3.528627 29.206936 -0.848668
2003-04-08 08:00:24 51°13.951 2°55.542 11.790229 3.528627 29.206936 -0.848668
2003-04-08 08:00:28 51°13.959 2°55.537 11.790503 3.528521 29.205968 -0.916087
2003-04-08 08:00:34 51°13.97 2°55.528 11.791736 3.528627 29.206936 -0.848668
2003-04-08 08:00:39 51°13.98 2°55.521 11.792238 3.528521 29.206558 -0.882377
2003-04-08 08:00:44 51°13.99 2°55.514 11.792694 3.528521 29.207148 -0.882377
2003-04-08 08:00:48 51°13.998 2°55.508 11.793059 3.528521 29.206558 -0.916087
2003-04-08 08:00:54 51°14.011 2°55.499 11.793059 3.528521 29.206558 -0.916087
2003-04-08 08:00:59 51°14.021 2°55.492 11.79347 3.528416 29.206181 -0.848668
2003-04-08 08:01:04 51°14.031 2°55.485 11.795661 3.528416 29.206771 -0.882377
2003-04-08 08:01:08 51°14.039 2°55.48 11.795159 3.528416 29.207361 -0.916087
2003-04-08 08:01:14 51°14.051 2°55.473 11.796391 3.528311 29.206983 -0.882377
2003-04-08 08:01:19 51°14.061 2°55.466 11.797121 3.528205 29.206016 -0.882377
2003-04-08 08:01:24 51°14.07 2°55.459 11.797121 3.528205 29.206016 -0.882377
2003-04-08 08:01:28 51°14.078 2°55.453 11.798992 3.528311 29.207574 -0.882377
2003-04-08 08:01:34 51°14.09 2°55.445 11.798125 3.528205 29.207196 -0.882377
2003-04-08 08:01:38 51°14.097 2°55.439 11.800087 3.528205 29.207196 -0.848668
2003-04-08 08:01:44 51°14.109 2°55.431 11.800863 3.5281 29.206819 -0.882377
2003-04-08 08:01:48 51°14.117 2°55.424 11.801593 3.5281 29.206819 -0.882377
2003-04-08 08:01:54 51°14.128 2°55.415 11.801593 3.5281 29.206819 -0.882377
2003-04-08 08:01:58 51°14.136 2°55.409 11.803099 3.5281 29.207409 -0.848668
2003-04-08 08:02:04 51°14.146 2°55.398 11.80497 3.527995 29.206441 -0.848668
2003-04-08 08:02:08 51°14.154 2°55.391 11.804742 3.527995 29.207031 -0.848668
2003-04-08 08:02:14 51°14.165 2°55.381 11.806019 3.527889 29.206654 -0.916087
2003-04-08 08:02:18 51°14.173 2°55.373 11.807206 3.527784 29.206277 -0.916087
2003-04-08 08:02:24 51°14.184 2°55.362 11.807206 3.527784 29.206277 -0.916087
2003-04-08 08:02:28 51°14.192 2°55.355 11.806293 3.527889 29.207244 -0.916087
2003-04-08 08:02:34 51°14.203 2°55.344 11.806293 3.527889 29.207834 -0.882377
2003-04-08 08:02:39 51°14.212 2°55.333 11.806293 3.527679 29.206489 -0.848668
2003-04-08 08:02:44 51°14.221 2°55.323 11.808164 3.527784 29.208047 -0.882377
2003-04-08 08:02:48 51°14.227 2°55.314 11.808529 3.527784 29.208047 -0.882377
2003-04-08 08:02:52 51°14.235 2°55.305 11.808529 3.527784 29.208047 -0.882377
2003-04-08 08:02:58 51°14.244 2°55.291 11.807571 3.527679 29.20767 -0.882377
2003-04-08 08:03:04 51°14.254 2°55.276 11.808073 3.527468 29.206325 -0.848668
2003-04-08 08:03:08 51°14.26 2°55.267 11.803373 3.527573 29.207883 -0.882377
2003-04-08 08:03:14 51°14.269 2°55.251 11.807936 3.527573 29.207883 -0.882377
2003-04-08 08:03:19 51°14.276 2°55.238 11.806932 3.527468 29.207505 -0.882377
2003-04-08 08:03:23 51°14.281 2°55.227 11.806932 3.527468 29.207505 -0.882377
2003-04-08 08:03:28 51°14.288 2°55.213 11.807662 3.527468 29.208686 -0.882377
2003-04-08 08:03:34 51°14.296 2°55.196 11.808164 3.527363 29.207718 -0.848668
2003-04-08 08:03:38 51°14.301 2°55.185 11.810309 3.527363 29.208309 -0.882377
2003-04-08 08:03:44 51°14.31 2°55.169 11.807388 3.527257 29.207341 -0.848668
2003-04-08 08:03:48 51°14.315 2°55.158 11.808757 3.527363 29.208899 -0.916087
2003-04-08 08:03:54 51°14.323 2°55.141 11.808757 3.527363 29.208899 -0.916087
2003-04-08 08:03:59 51°14.329 2°55.127 11.807799 3.527152 29.207554 -0.882377
2003-04-08 08:04:04 51°14.336 2°55.112 11.806658 3.527152 29.208144 -0.882377
2003-04-08 08:04:08 51°14.34 2°55.101 11.807434 3.527047 29.207176 -0.882377
2003-04-08 08:04:14 51°14.348 2°55.084 11.806567 3.527047 29.207767 -0.882377
2003-04-08 08:04:18 51°14.353 2°55.072 11.801456 3.527152 29.209325 -0.882377
2003-04-08 08:04:24 51°14.36 2°55.055 11.801456 3.527152 29.209325 -0.882377
2003-04-08 08:04:28 51°14.365 2°55.043 11.801502 3.526941 29.207389 -0.916087
2003-04-08 08:04:34 51°14.372 2°55.025 11.800087 3.526941 29.20857 -0.882377
2003-04-08 08:04:38 51°14.377 2°55.013 11.800726 3.526836 29.208192 -0.848668
2003-04-08 08:04:44 51°14.383 2°54.994 11.798034 3.526836 29.208783 -0.882377
2003-04-08 08:04:48 51°14.386 2°54.981 11.797805 3.526731 29.208996 -0.848668
2003-04-08 08:04:54 51°14.391 2°54.961 11.797805 3.526731 29.208996 -0.848668
2003-04-08 08:04:58 51°14.393 2°54.947 11.790732 3.526731 29.209587 -0.916087
2003-04-08 08:05:04 51°14.395 2°54.927 11.793287 3.526731 29.210177 -0.882377
2003-04-08 08:05:08 51°14.396 2°54.913 11.791599 3.526625 29.21039 -0.848668
2003-04-08 08:05:12 51°14.397 2°54.898 11.792785 3.52652 29.208832 -0.882377
2003-04-08 08:05:18 51°14.399 2°54.877 11.789956 3.52652 29.209422 -0.916087
2003-04-08 08:05:24 51°14.399 2°54.855 11.789956 3.52652 29.209422 -0.916087
2003-04-08 08:05:28 51°14.399 2°54.841 11.790595 3.52652 29.210603 -0.882377
2003-04-08 08:05:34 51°14.399 2°54.819 11.791051 3.526415 29.209635 -0.882377
2003-04-08 08:05:38 51°14.4 2°54.804 11.792694 3.52652 29.210603 -0.848668
2003-04-08 08:05:44 51°14.4 2°54.783 11.79242 3.526309 29.209258 -0.848668
2003-04-08 08:05:48 51°14.4 2°54.768 11.790184 3.526309 29.210439 -0.882377
2003-04-08 08:05:54 51°14.4 2°54.746 11.790184 3.526309 29.210439 -0.882377
2003-04-08 08:05:58 51°14.4 2°54.731 11.791325 3.526099 29.208503 -0.882377
2003-04-08 08:06:04 51°14.4 2°54.709 11.789225 3.526309 29.210439 -0.916087
2003-04-08 08:06:08 51°14.399 2°54.694 11.786898 3.526099 29.209684 -0.882377
2003-04-08 08:06:14 51°14.398 2°54.672 11.785848 3.525993 29.209897 -0.882377
2003-04-08 08:06:18 51°14.397 2°54.658 11.786898 3.526099 29.211456 -0.848668
2003-04-08 08:06:24 51°14.396 2°54.639 11.786898 3.526099 29.211456 -0.848668
2003-04-08 08:06:28 51°14.395 2°54.626 11.785802 3.526099 29.212047 -0.882377
2003-04-08 08:06:34 51°14.393 2°54.608 11.785391 3.525888 29.210701 -0.848668
2003-04-08 08:06:38 51°14.392 2°54.597 11.788952 3.525993 29.21167 -0.882377
2003-04-08 08:06:44 51°14.39 2°54.58 11.787491 3.525783 29.210324 -0.882377
2003-04-08 08:06:48 51°14.389 2°54.569 11.785026 3.525677 29.210537 -0.882377
2003-04-08 08:06:54 51°14.386 2°54.553 11.785026 3.525677 29.210537 -0.882377
2003-04-08 08:06:58 51°14.385 2°54.543 11.78562 3.525783 29.211506 -0.882377
2003-04-08 08:07:04 51°14.383 2°54.529 11.78603 3.525677 29.211128 -0.916087
2003-04-08 08:07:08 51°14.382 2°54.519 11.784752 3.525572 29.210751 -0.882377
2003-04-08 08:07:14 51°14.379 2°54.505 11.786487 3.525467 29.210964 -0.882377
2003-04-08 08:07:18 51°14.378 2°54.495 11.787628 3.525467 29.210964 -0.882377
2003-04-08 08:07:24 51°14.375 2°54.482 11.787628 3.525467 29.210964 -0.882377
2003-04-08 08:07:28 51°14.373 2°54.473 11.787993 3.525467 29.212146 -0.882377
2003-04-08 08:07:34 51°14.371 2°54.46 11.789727 3.525361 29.211768 -0.882377
2003-04-08 08:07:38 51°14.37 2°54.452 11.790184 3.525256 29.211391 -0.882377
2003-04-08 08:07:44 51°14.367 2°54.439 11.790458 3.525256 29.211391 -0.882377
2003-04-08 08:07:48 51°14.365 2°54.431 11.789864 3.525151 29.211013 -0.848668
2003-04-08 08:07:54 51°14.363 2°54.418 11.789864 3.525151 29.211013 -0.848668
2003-04-08 08:07:58 51°14.362 2°54.411 11.788952 3.525045 29.210636 -0.882377
2003-04-08 08:08:04 51°14.36 2°54.399 11.789225 3.525151 29.212195 -0.882377
2003-04-08 08:08:08 51°14.358 2°54.391 11.78886 3.525045 29.211818 -0.848668
2003-04-08 08:08:14 51°14.355 2°54.38 11.788495 3.524835 29.209881 -0.848668
2003-04-08 08:08:18 51°14.354 2°54.372 11.790138 3.52494 29.21144 -0.848668
2003-04-08 08:08:24 51°14.352 2°54.362 11.790138 3.52494 29.21144 -0.848668
2003-04-08 08:08:28 51°14.351 2°54.354 11.790823 3.524729 29.210685 -0.916087
2003-04-08 08:08:34 51°14.349 2°54.344 11.792238 3.524835 29.212836 -0.882377
2003-04-08 08:08:38 51°14.348 2°54.337 -999 3.524624 29.210899 -0.848668
2003-04-08 08:08:44 51°14.346 2°54.327 -999 3.524624 29.21149 -0.848668
2003-04-08 08:08:48 51°14.344 2°54.32 -999 3.524519 29.211703 -0.882377
2003-04-08 08:08:54 51°14.341 2°54.309 -999 3.524519 29.211703 -0.882377
2003-04-08 08:08:58 51°14.34 2°54.302 -999 3.524624 29.213263 -0.848668
2003-04-08 08:09:04 51°14.338 2°54.293 -999 3.524413 29.211917 -0.848668
2003-04-08 08:09:08 51°14.336 2°54.286 -999 3.524308 29.210948 -0.882377
2003-04-08 08:09:14 51°14.333 2°54.277 -999 3.524308 29.211539 -0.882377
2003-04-08 08:09:18 51°14.332 2°54.271 -999 3.524308 29.21213 -0.882377
2003-04-08 08:09:24 51°14.329 2°54.262 -999 3.524308 29.21213 -0.882377
2003-04-08 08:09:28 51°14.328 2°54.256 -999 3.524097 29.210784 -0.882377
2003-04-08 08:09:34 51°14.325 2°54.247 -999 3.524203 29.212344 -0.882377
2003-04-08 08:09:39 51°14.322 2°54.24 -999 3.523992 29.210998 -0.882377
2003-04-08 08:09:44 51°14.321 2°54.233 -999 3.524097 29.212558 -0.848668
2003-04-08 08:09:48 51°14.319 2°54.227 -999 3.523886 29.211211 -0.882377
2003-04-08 08:09:54 51°14.316 2°54.219 -999 3.523886 29.211211 -0.882377
2003-04-08 08:09:59 51°14.313 2°54.211 -999 3.523886 29.211802 -0.848668
2003-04-08 08:10:04 51°14.311 2°54.204 -999 3.523886 29.212394 -0.882377
2003-04-08 08:10:08 51°14.309 2°54.199 -999 3.523781 29.212016 -0.882377
2003-04-08 08:10:14 51°14.306 2°54.191 -999 3.523676 29.211639 -0.882377
2003-04-08 08:10:19 51°14.304 2°54.184 -999 3.523676 29.212821 -0.882377
2003-04-08 08:10:24 51°14.301 2°54.178 -999 3.523676 29.212821 -0.882377
2003-04-08 08:10:28 51°14.299 2°54.172 -999 3.523465 29.210883 -0.848668
2003-04-08 08:10:34 51°14.296 2°54.164 -999 3.52336 29.210506 -0.882377
2003-04-08 08:10:38 51°14.294 2°54.159 -999 3.52336 29.211097 -0.882377
2003-04-08 08:10:44 51°14.292 2°54.151 -999 3.523254 29.210719 -0.882377
2003-04-08 08:10:48 51°14.29 2°54.145 -999 3.523254 29.210719 -0.882377
2003-04-08 08:10:54 51°14.287 2°54.137 -999 3.523254 29.210719 -0.882377
2003-04-08 08:10:58 51°14.285 2°54.131 -999 3.523149 29.20975 -0.882377
2003-04-08 08:11:04 51°14.282 2°54.121 -999 3.523149 29.210933 -0.848668
2003-04-08 08:11:08 51°14.279 2°54.113 -999 3.523149 29.211525 -0.882377
2003-04-08 08:11:14 51°14.274 2°54.1 -999 3.523044 29.211147 -0.848668
2003-04-08 08:11:19 51°14.27 2°54.087 -999 3.522938 29.210178 -0.916087
2003-04-08 08:11:24 51°14.266 2°54.072 -999 3.522938 29.210178 -0.916087
2003-04-08 08:11:28 51°14.262 2°54.06 -999 3.522938 29.210769 -0.882377
2003-04-08 08:11:34 51°14.257 2°54.041 -999 3.522833 29.210392 -0.848668
2003-04-08 08:11:38 51°14.253 2°54.026 -999 3.522938 29.211361 -0.882377
2003-04-08 08:11:44 51°14.245 2°54.003 -999 3.522728 29.210014 -0.848668
2003-04-08 08:11:48 51°14.24 2°53.986 -999 3.522728 29.211197 -0.882377
2003-04-08 08:11:54 51°14.232 2°53.959 -999 3.522728 29.211197 -0.882377
2003-04-08 08:11:59 51°14.224 2°53.936 -999 3.522622 29.210819 -0.916087
2003-04-08 08:12:04 51°14.218 2°53.912 -999 3.522622 29.211411 -0.916087
2003-04-08 08:12:08 51°14.212 2°53.893 -999 3.522517 29.211625 -0.916087
2003-04-08 08:12:14 51°14.204 2°53.864 -999 3.522517 29.211625 -0.848668
2003-04-08 08:12:18 51°14.198 2°53.844 -999 3.522412 29.210655 -0.882377
2003-04-08 08:12:24 51°14.189 2°53.815 -999 3.522412 29.210655 -0.882377
2003-04-08 08:12:28 51°14.183 2°53.795 -999 3.522412 29.211247 -0.882377
2003-04-08 08:12:34 51°14.174 2°53.764 -999 3.522306 29.210869 -0.882377
2003-04-08 08:12:39 51°14.166 2°53.739 -999 3.522096 29.209522 -0.882377
2003-04-08 08:12:44 51°14.159 2°53.713 -999 3.522201 29.211083 -0.882377
2003-04-08 08:12:48 51°14.152 2°53.692 -999 3.522201 29.211675 -0.882377
2003-04-08 08:12:54 51°14.144 2°53.66 -999 3.522201 29.211675 -0.882377
2003-04-08 08:12:58 51°14.137 2°53.639 -999 3.522096 29.211297 -0.882377
2003-04-08 08:13:04 51°14.128 2°53.607 -999 3.522096 29.211297 -0.882377
2003-04-08 08:13:08 51°14.121 2°53.585 -999 3.521885 29.210542 -0.882377
2003-04-08 08:13:14 51°14.111 2°53.553 -999 3.521885 29.211725 -0.882377
2003-04-08 08:13:18 51°14.105 2°53.532 -999 3.521885 29.211133 -0.848668
2003-04-08 08:13:24 51°14.096 2°53.499 -999 3.521885 29.211133 -0.848668
2003-04-08 08:13:28 51°14.089 2°53.477 -999 3.52178 29.210756 -0.882377
2003-04-08 08:13:34 51°14.08 2°53.444 -999 3.52178 29.210756 -0.882377
2003-04-08 08:13:39 51°14.072 2°53.417 -999 3.521674 29.210378 -0.882377
2003-04-08 08:13:44 51°14.064 2°53.39 -999 3.521674 29.210378 -0.916087
2003-04-08 08:13:48 51°14.058 2°53.368 -999 3.521569 29.211184 -0.916087
2003-04-08 08:13:54 51°14.048 2°53.336 -999 3.521569 29.211184 -0.916087
2003-04-08 08:13:58 51°14.042 2°53.314 -999 3.521464 29.210806 -0.882377
2003-04-08 08:14:03 51°14.034 2°53.286 -999 3.521464 29.211398 -0.882377
2003-04-08 08:14:09 51°14.025 2°53.253 -999 3.521358 29.21102 -0.882377
2003-04-08 08:14:14 51°14.016 2°53.226 -999 3.521358 29.21102 -0.882377
2003-04-08 08:14:18 51°14.01 2°53.204 -999 3.521253 29.210642 -0.916087
2003-04-08 08:14:24 51°14 2°53.171 -999 3.521253 29.210642 -0.916087
2003-04-08 08:14:28 51°13.993 2°53.148 -999 3.521253 29.210642 -0.882377
2003-04-08 08:14:34 51°13.983 2°53.116 -999 3.521253 29.211234 -0.882377
2003-04-08 08:14:39 51°13.974 2°53.09 -999 3.521253 29.212418 -0.882377
2003-04-08 08:14:44 51°13.965 2°53.063 -999 3.521042 29.209887 -0.882377
2003-04-08 08:14:48 51°13.957 2°53.041 -999 3.520937 29.210101 -0.882377
2003-04-08 08:14:54 51°13.948 2°53.007 -999 3.520937 29.210101 -0.882377
2003-04-08 08:14:59 51°13.938 2°52.981 -999 3.521042 29.211662 -0.916087
2003-04-08 08:15:03 51°13.931 2°52.96 -999 3.521042 29.211662 -0.848668
2003-04-08 08:15:08 51°13.921 2°52.934 -999 3.520726 29.209937 -0.882377
2003-04-08 08:15:14 51°13.91 2°52.903 -999 3.520832 29.210315 -0.882377
2003-04-08 08:15:19 51°13.901 2°52.878 -999 3.520726 29.209937 -0.882377
2003-04-08 08:15:24 51°13.892 2°52.851 -999 3.520726 29.209937 -0.882377
2003-04-08 08:15:28 51°13.884 2°52.83 -999 3.520726 29.211121 -0.882377
2003-04-08 08:15:34 51°13.873 2°52.797 -999 3.520621 29.210743 -0.882377
2003-04-08 08:15:38 51°13.866 2°52.776 -999 3.520516 29.210365 -0.882377
2003-04-08 08:15:44 51°13.856 2°52.744 -999 3.520621 29.210151 -0.882377
2003-04-08 08:15:48 51°13.848 2°52.724 -999 3.52041 29.209987 -0.848668
2003-04-08 08:15:54 51°13.838 2°52.692 -999 3.52041 29.209987 -0.848668
2003-04-08 08:15:59 51°13.829 2°52.666 -999 3.520516 29.210957 -0.916087
2003-04-08 08:16:04 51°13.82 2°52.64 -999 3.520305 29.209018 -0.882377
2003-04-08 08:16:08 51°13.812 2°52.619 -999 3.52041 29.210579 -0.916087
2003-04-08 08:16:14 51°13.8 2°52.588 -999 3.5202 29.209232 -0.882377
2003-04-08 08:16:18 51°13.794 2°52.566 -999 3.520305 29.210794 -0.848668
2003-04-08 08:16:24 51°13.783 2°52.535 -999 3.520305 29.210794 -0.848668
2003-04-08 08:16:28 51°13.776 2°52.513 -999 3.520094 29.208854 -0.882377
2003-04-08 08:16:34 51°13.764 2°52.482 -999 3.5202 29.2116 -0.848668
2003-04-08 08:16:39 51°13.756 2°52.456 -999 3.520094 29.21063 -0.882377
2003-04-08 08:16:44 51°13.746 2°52.43 -999 3.520094 29.21063 -0.848668
2003-04-08 08:16:48 51°13.739 2°52.41 -999 3.519989 29.210844 -0.882377
2003-04-08 08:16:54 51°13.728 2°52.379 -999 3.519989 29.210844 -0.882377
2003-04-08 08:16:58 51°13.721 2°52.358 -999 3.519884 29.209874 -0.882377
2003-04-08 08:17:04 51°13.71 2°52.326 -999 3.519778 29.210089 -0.882377
2003-04-08 08:17:08 51°13.703 2°52.305 -999 3.519778 29.209497 -0.916087
2003-04-08 08:17:14 51°13.692 2°52.272 -999 3.519673 29.207935 -0.882377
2003-04-08 08:17:19 51°13.682 2°52.245 -999 3.519567 29.208149 -0.848668
2003-04-08 08:17:24 51°13.673 2°52.217 -999 3.519567 29.208149 -0.848668
2003-04-08 08:17:28 51°13.665 2°52.196 -999 3.519778 29.210089 -0.882377
2003-04-08 08:17:34 51°13.655 2°52.165 -999 3.519462 29.206587 -0.848668
2003-04-08 08:17:39 51°13.646 2°52.139 -999 3.519462 29.208363 -0.882377
2003-04-08 08:17:44 51°13.637 2°52.113 -999 3.519462 29.208363 -0.848668
2003-04-08 08:17:48 51°13.63 2°52.093 -999 3.519462 29.208955 -0.882377
2003-04-08 08:17:54 51°13.619 2°52.062 -999 3.519462 29.208955 -0.882377
2003-04-08 08:17:59 51°13.609 2°52.035 -999 3.519357 29.208577 -0.882377
2003-04-08 08:18:04 51°13.6 2°52.008 -999 3.519251 29.208199 -0.848668
2003-04-08 08:18:08 51°13.593 2°51.986 -999 3.519357 29.209169 -0.882377
2003-04-08 08:18:14 51°13.582 2°51.954 -999 3.519251 29.208791 -0.882377
2003-04-08 08:18:19 51°13.572 2°51.928 -999 3.519251 29.209384 -0.882377
2003-04-08 08:18:24 51°13.564 2°51.902 -999 3.519251 29.209384 -0.882377
2003-04-08 08:18:28 51°13.557 2°51.881 -999 3.519146 29.208414 -0.916087
2003-04-08 08:18:34 51°13.545 2°51.85 -999 3.519146 29.209006 -0.882377
2003-04-08 08:18:38 51°13.539 2°51.829 -999 3.519041 29.208036 -0.882377
2003-04-08 08:18:44 51°13.527 2°51.797 -999 3.518935 29.207658 -0.848668
2003-04-08 08:18:48 51°13.52 2°51.775 -999 3.518935 29.20825 -0.882377
2003-04-08 08:18:54 51°13.509 2°51.744 -999 3.518935 29.20825 -0.882377
2003-04-08 08:18:58 51°13.502 2°51.722 -999 3.518725 29.206902 -0.916087
2003-04-08 08:19:04 51°13.491 2°51.691 -999 3.518725 29.208679 -0.882377
2003-04-08 08:19:08 51°13.484 2°51.67 -999 3.518725 29.209863 -0.848668
2003-04-08 08:19:14 51°13.473 2°51.638 -999 3.518725 29.210455 -0.882377
2003-04-08 08:19:18 51°13.466 2°51.616 -999 3.518619 29.209485 -0.882377
2003-04-08 08:19:24 51°13.455 2°51.585 -999 3.518619 29.209485 -0.882377
2003-04-08 08:19:28 51°13.448 2°51.564 -999 3.518619 29.208893 -0.848668
2003-04-08 08:19:34 51°13.437 2°51.531 -999 3.518514 29.207923 -0.882377
2003-04-08 08:19:39 51°13.429 2°51.504 -999 3.518409 29.205768 -0.882377
2003-04-08 08:19:44 51°13.419 2°51.478 -999 3.518303 29.20539 -0.882377
2003-04-08 08:19:48 51°13.411 2°51.457 -999 3.518409 29.205176 -0.882377
2003-04-08 08:19:54 51°13.401 2°51.425 -999 3.518409 29.205176 -0.882377
2003-04-08 08:19:59 51°13.391 2°51.398 -999 3.518303 29.204798 -0.848668
2003-04-08 08:20:04 51°13.382 2°51.371 -999 3.518303 29.204798 -0.848668
2003-04-08 08:20:08 51°13.374 2°51.349 -999 3.518198 29.205012 -0.882377
2003-04-08 08:20:12 51°13.367 2°51.327 -999 3.518198 29.207381 -0.882377
2003-04-08 08:20:18 51°13.356 2°51.294 -999 3.518198 29.207381 -0.882377
2003-04-08 08:20:24 51°13.345 2°51.26 -999 3.518198 29.207381 -0.882377
2003-04-08 08:20:28 51°13.337 2°51.238 -999 3.517987 29.207218 -0.882377
2003-04-08 08:20:34 51°13.326 2°51.204 -999 3.518093 29.208188 -0.882377
2003-04-08 08:20:39 51°13.316 2°51.177 -999 3.517987 29.20781 -0.882377
2003-04-08 08:20:44 51°13.306 2°51.149 -999 3.517987 29.20781 -0.848668
2003-04-08 08:20:48 51°13.298 2°51.126 -999 3.518093 29.20878 -0.882377
2003-04-08 08:20:54 51°13.286 2°51.092 -999 3.518093 29.20878 -0.882377
2003-04-08 08:20:58 51°13.278 2°51.069 -999 3.517882 29.20684 -0.882377
2003-04-08 08:21:04 51°13.266 2°51.034 -999 3.517987 29.208402 -0.848668
2003-04-08 08:21:08 51°13.259 2°51.011 -999 3.517987 29.207218 -0.882377
2003-04-08 08:21:14 51°13.247 2°50.977 -999 3.517671 29.206084 -0.848668
2003-04-08 08:21:18 51°13.239 2°50.954 -999 3.517882 29.208024 -0.882377
2003-04-08 08:21:24 51°13.228 2°50.919 -999 3.517882 29.208024 -0.882377
2003-04-08 08:21:28 51°13.22 2°50.897 -999 3.517777 29.208831 -0.916087
2003-04-08 08:21:34 51°13.208 2°50.862 -999 3.517566 29.208075 -0.882377
2003-04-08 08:21:38 51°13.2 2°50.84 -999 3.517777 29.211201 -0.882377
2003-04-08 08:21:44 51°13.188 2°50.806 -999 3.517566 29.209853 -0.882377
2003-04-08 08:21:48 51°13.18 2°50.783 -999 3.517566 29.208668 -0.882377
2003-04-08 08:21:54 51°13.169 2°50.749 -999 3.517566 29.208668 -0.882377
2003-04-08 08:21:58 51°13.161 2°50.727 -999 3.517461 29.207698 -0.882377
2003-04-08 08:22:04 51°13.149 2°50.693 -999 3.517461 29.207105 -0.882377
2003-04-08 08:22:08 51°13.141 2°50.67 -999 3.517355 29.205542 -0.916087
2003-04-08 08:22:14 51°13.13 2°50.634 -999 3.51725 29.203387 -0.882377
2003-04-08 08:22:18 51°13.122 2°50.611 -999 3.517145 29.203009 -0.882377
2003-04-08 08:22:24 51°13.11 2°50.576 -999 3.517145 29.203009 -0.882377
2003-04-08 08:22:28 51°13.102 2°50.554 -999 3.517145 29.203601 -0.848668
2003-04-08 08:22:34 51°13.091 2°50.519 -999 3.51725 29.204572 -0.916087
2003-04-08 08:22:39 51°13.081 2°50.49 -999 3.517039 29.203816 -0.882377
2003-04-08 08:22:44 51°13.072 2°50.461 -999 3.517145 29.206564 -0.916087
2003-04-08 08:22:48 51°13.064 2°50.439 -999 3.516934 29.205808 -0.882377
2003-04-08 08:22:54 51°13.052 2°50.404 -999 3.516934 29.205808 -0.882377
2003-04-08 08:22:59 51°13.043 2°50.376 -999 3.517039 29.206778 -0.882377
2003-04-08 08:23:04 51°13.034 2°50.346 -999 3.516934 29.2064 -0.882377
2003-04-08 08:23:08 51°13.026 2°50.323 -999 3.516934 29.207585 -0.882377
2003-04-08 08:23:14 51°13.015 2°50.287 -999 3.516934 29.206993 -0.848668
2003-04-08 08:23:19 51°13.005 2°50.259 -999 3.516723 29.206237 -0.848668
2003-04-08 08:23:24 51°12.996 2°50.229 -999 3.516723 29.206237 -0.848668
2003-04-08 08:23:28 51°12.987 2°50.207 -999 3.516723 29.206237 -0.882377
2003-04-08 08:23:34 51°12.976 2°50.171 -999 3.516723 29.206829 -0.882377
2003-04-08 08:23:39 51°12.966 2°50.143 -999 3.516513 29.207258 -0.882377
2003-04-08 08:23:44 51°12.957 2°50.114 -999 3.516723 29.209792 -0.882377
2003-04-08 08:23:48 51°12.949 2°50.092 -999 3.516513 29.208444 -0.882377
2003-04-08 08:23:54 51°12.937 2°50.057 -999 3.516513 29.208444 -0.882377
2003-04-08 08:23:58 51°12.929 2°50.034 -999 3.516513 29.207851 -0.848668
2003-04-08 08:24:04 51°12.917 2°49.998 -999 3.516302 29.204724 -0.882377
2003-04-08 08:24:09 51°12.907 2°49.969 -999 3.516407 29.203917 -0.882377
2003-04-08 08:24:14 51°12.898 2°49.94 -999 3.516197 29.202569 -0.882377
2003-04-08 08:24:18 51°12.89 2°49.917 -999 3.516302 29.201762 -0.882377
2003-04-08 08:24:24 51°12.878 2°49.883 -999 3.516302 29.201762 -0.882377
2003-04-08 08:24:28 51°12.871 2°49.86 -999 3.516091 29.200413 -0.882377
2003-04-08 08:24:34 51°12.86 2°49.825 -999 3.516197 29.201976 -0.848668
2003-04-08 08:24:38 51°12.852 2°49.802 -999 3.516091 29.201006 -0.882377
2003-04-08 08:24:44 51°12.841 2°49.767 -999 3.515986 29.202405 -0.916087
2003-04-08 08:24:48 51°12.833 2°49.744 -999 3.516091 29.204561 -0.916087
2003-04-08 08:24:54 51°12.821 2°49.71 -999 3.516091 29.204561 -0.916087
2003-04-08 08:24:59 51°12.811 2°49.682 -999 3.516091 29.205153 -0.848668
2003-04-08 08:25:04 51°12.801 2°49.653 -999 3.515881 29.20499 -0.916087
2003-04-08 08:25:08 51°12.793 2°49.63 -999 3.515986 29.207146 -0.882377
2003-04-08 08:25:14 51°12.782 2°49.595 -999 3.515986 29.206553 -0.916087
2003-04-08 08:25:19 51°12.772 2°49.566 -999 3.515775 29.207576 -0.848668
2003-04-08 08:25:24 51°12.762 2°49.537 -999 3.515775 29.207576 -0.848668
2003-04-08 08:25:28 51°12.754 2°49.514 -999 3.515986 29.208925 -0.882377
2003-04-08 08:25:34 51°12.742 2°49.48 -999 3.515775 29.206983 -0.848668
2003-04-08 08:25:38 51°12.735 2°49.457 -999 3.515881 29.207361 -0.848668
2003-04-08 08:25:44 51°12.723 2°49.422 -999 3.515775 29.205797 -0.848668
2003-04-08 08:25:48 51°12.715 2°49.399 -999 3.515775 29.205797 -0.882377
2003-04-08 08:25:54 51°12.703 2°49.364 -999 3.515775 29.205797 -0.882377
2003-04-08 08:25:59 51°12.694 2°49.335 -999 3.515775 29.204612 -0.882377
2003-04-08 08:26:04 51°12.684 2°49.305 -999 3.51567 29.203641 -0.882377
2003-04-08 08:26:08 51°12.676 2°49.282 -999 3.515565 29.20267 -0.882377
2003-04-08 08:26:14 51°12.665 2°49.247 -999 3.51567 29.204234 -0.882377
2003-04-08 08:26:19 51°12.655 2°49.218 -999 3.515565 29.203263 -0.882377
2003-04-08 08:26:24 51°12.646 2°49.188 -999 3.515565 29.203263 -0.882377
2003-04-08 08:26:28 51°12.638 2°49.165 -999 3.515565 29.204448 -0.882377
2003-04-08 08:26:34 51°12.626 2°49.131 -999 3.515565 29.205634 -0.848668
2003-04-08 08:26:38 51°12.619 2°49.108 -999 3.515459 29.205256 -0.882377
2003-04-08 08:26:44 51°12.607 2°49.072 -999 3.515354 29.204878 -0.882377
2003-04-08 08:26:48 51°12.6 2°49.047 -999 3.515459 29.205849 -0.882377
2003-04-08 08:26:54 51°12.589 2°49.011 -999 3.515459 29.205849 -0.882377
2003-04-08 08:26:59 51°12.58 2°48.983 -999 3.515459 29.206441 -0.848668
2003-04-08 08:27:04 51°12.57 2°48.955 -999 3.515459 29.207034 -0.882377
2003-04-08 08:27:08 51°12.562 2°48.932 -999 3.515459 29.207034 -0.882377
2003-04-08 08:27:14 51°12.55 2°48.897 -999 3.515354 29.206063 -0.882377
2003-04-08 08:27:18 51°12.544 2°48.873 -999 3.515354 29.206063 -0.882377
2003-04-08 08:27:24 51°12.531 2°48.839 -999 3.515354 29.206063 -0.882377
2003-04-08 08:27:28 51°12.523 2°48.816 -999 3.515354 29.207249 -0.882377
2003-04-08 08:27:34 51°12.512 2°48.781 -999 3.515354 29.206656 -0.882377
2003-04-08 08:27:39 51°12.501 2°48.753 -999 3.515249 29.207464 -0.882377
2003-04-08 08:27:44 51°12.493 2°48.724 -999 3.515249 29.206278 -0.882377
2003-04-08 08:27:48 51°12.484 2°48.702 -999 3.515143 29.206493 -0.882377
2003-04-08 08:27:52 51°12.477 2°48.679 -999 3.515143 29.206493 -0.882377
2003-04-08 08:27:58 51°12.466 2°48.644 -999 3.515249 29.206871 -0.848668
2003-04-08 08:28:04 51°12.454 2°48.609 -999 3.515143 29.207086 -0.848668
2003-04-08 08:28:08 51°12.446 2°48.585 -999 3.515143 29.208865 -0.882377
2003-04-08 08:28:14 51°12.434 2°48.551 -999 3.515143 29.208272 -0.916087
2003-04-08 08:28:19 51°12.424 2°48.523 -999 3.514933 29.208702 -0.882377
2003-04-08 08:28:24 51°12.414 2°48.494 -999 3.514933 29.208702 -0.882377
2003-04-08 08:28:28 51°12.407 2°48.47 -999 3.514933 29.208702 -0.916087
2003-04-08 08:28:34 51°12.394 2°48.435 -999 3.514827 29.20951 -0.882377
2003-04-08 08:28:38 51°12.387 2°48.411 -999 3.514933 29.211074 -0.882377
2003-04-08 08:28:44 51°12.375 2°48.376 -999 3.514827 29.211882 -0.882377
2003-04-08 08:28:48 51°12.368 2°48.353 -999 3.514933 29.211074 -0.882377
2003-04-08 08:28:54 51°12.356 2°48.318 -999 3.514933 29.211074 -0.882377
2003-04-08 08:28:58 51°12.348 2°48.296 -999 3.514722 29.209132 -0.882377
2003-04-08 08:29:04 51°12.337 2°48.262 -999 3.514722 29.207945 -0.848668
2003-04-08 08:29:08 51°12.329 2°48.239 -999 3.514511 29.203631 -0.882377
2003-04-08 08:29:14 51°12.317 2°48.203 -999 3.514511 29.202445 -0.848668
2003-04-08 08:29:18 51°12.31 2°48.18 -999 3.514406 29.202067 -0.882377
2003-04-08 08:29:24 51°12.298 2°48.146 -999 3.514406 29.202067 -0.882377
2003-04-08 08:29:29 51°12.288 2°48.117 -999 3.514406 29.200882 -0.882377
2003-04-08 08:29:34 51°12.279 2°48.089 -999 3.5143 29.201689 -0.916087
2003-04-08 08:29:38 51°12.271 2°48.065 -999 3.514195 29.201904 -0.882377
2003-04-08 08:29:44 51°12.26 2°48.029 -999 3.5143 29.204654 -0.882377
2003-04-08 08:29:48 51°12.252 2°48.006 -999 3.514195 29.205462 -0.882377
2003-04-08 08:29:54 51°12.241 2°47.971 -999 3.514195 29.205462 -0.882377
2003-04-08 08:29:59 51°12.231 2°47.943 -999 3.514301 29.208212 -0.882377
2003-04-08 08:30:04 51°12.222 2°47.913 -999 3.51409 29.206863 -0.882377
2003-04-08 08:30:08 51°12.215 2°47.89 -999 3.514195 29.209614 -0.882377
2003-04-08 08:30:14 51°12.203 2°47.856 -999 3.51409 29.208049 -0.916087
2003-04-08 08:30:18 51°12.195 2°47.833 -999 3.51409 29.208642 -0.848668
2003-04-08 08:30:24 51°12.183 2°47.799 -999 3.51409 29.208642 -0.848668
2003-04-08 08:30:28 51°12.175 2°47.777 -999 3.513984 29.207671 -0.916087
2003-04-08 08:30:34 51°12.164 2°47.741 -999 3.513879 29.206106 -0.882377
2003-04-08 08:30:38 51°12.156 2°47.718 -999 3.513774 29.205728 -0.916087
2003-04-08 08:30:44 51°12.144 2°47.684 -999 3.513984 29.207078 -0.916087
2003-04-08 08:30:48 51°12.137 2°47.66 -999 3.513879 29.2067 -0.882377
2003-04-08 08:30:54 51°12.125 2°47.626 -999 3.513879 29.2067 -0.882377
2003-04-08 08:30:59 51°12.115 2°47.597 -999 3.513879 29.206106 -0.848668
2003-04-08 08:31:04 51°12.105 2°47.567 -999 3.513668 29.204164 -0.882377
2003-04-08 08:31:08 51°12.098 2°47.544 -999 3.513774 29.205135 -0.882377
2003-04-08 08:31:14 51°12.087 2°47.509 -999 3.513668 29.204757 -0.916087
2003-04-08 08:31:19 51°12.077 2°47.48 -999 3.513563 29.203193 -0.848668
2003-04-08 08:31:24 51°12.068 2°47.451 -999 3.513563 29.203193 -0.848668
2003-04-08 08:31:28 51°12.059 2°47.428 -999 3.513563 29.204379 -0.848668
2003-04-08 08:31:34 51°12.048 2°47.393 -999 3.513563 29.204972 -0.882377
2003-04-08 08:31:39 51°12.038 2°47.364 -999 3.513668 29.206537 -0.916087
2003-04-08 08:31:44 51°12.028 2°47.334 -999 3.513563 29.205565 -0.882377
2003-04-08 08:31:48 51°12.021 2°47.311 -999 3.513458 29.205187 -0.882377
2003-04-08 08:31:54 51°12.009 2°47.277 -999 3.513458 29.205187 -0.882377
2003-04-08 08:31:58 51°12.001 2°47.253 -999 3.513352 29.204216 -0.848668
2003-04-08 08:32:04 51°11.989 2°47.218 -999 3.513352 29.205402 -0.882377
2003-04-08 08:32:08 51°11.982 2°47.195 -999 3.513352 29.204809 -0.882377
2003-04-08 08:32:14 51°11.97 2°47.16 -999 3.513247 29.205024 -0.882377
2003-04-08 08:32:18 51°11.963 2°47.136 -999 3.513352 29.205995 -0.848668
2003-04-08 08:32:24 51°11.951 2°47.102 -999 3.513352 29.205995 -0.848668
2003-04-08 08:32:28 51°11.943 2°47.078 -999 3.513247 29.205024 -0.848668
2003-04-08 08:32:34 51°11.931 2°47.044 -999 3.513247 29.20621 -0.916087
2003-04-08 08:32:39 51°11.921 2°47.015 -999 3.513247 29.20621 -0.882377
2003-04-08 08:32:44 51°11.911 2°46.986 -999 3.513142 29.205239 -0.882377
2003-04-08 08:32:48 51°11.904 2°46.962 -999 3.513036 29.204861 -0.882377
2003-04-08 08:32:54 51°11.892 2°46.928 -999 3.513036 29.204861 -0.882377
2003-04-08 08:32:58 51°11.885 2°46.904 -999 3.513036 29.204267 -0.882377
2003-04-08 08:33:04 51°11.873 2°46.869 -999 3.513142 29.207019 -0.882377
2003-04-08 08:33:08 51°11.866 2°46.846 -999 3.513036 29.205454 -0.882377
2003-04-08 08:33:14 51°11.854 2°46.811 -999 3.512931 29.205076 -0.882377
2003-04-08 08:33:19 51°11.845 2°46.782 -999 3.512931 29.205669 -0.882377
2003-04-08 08:33:24 51°11.836 2°46.752 -999 3.512931 29.205669 -0.882377
2003-04-08 08:33:28 51°11.828 2°46.729 -999 3.512931 29.206856 -0.882377
2003-04-08 08:33:34 51°11.817 2°46.693 -999 3.512826 29.204697 -0.882377
2003-04-08 08:33:38 51°11.809 2°46.671 -999 3.512826 29.207664 -0.916087
2003-04-08 08:33:44 51°11.798 2°46.635 -999 3.512826 29.207071 -0.882377
2003-04-08 08:33:48 51°11.79 2°46.612 -999 3.512615 29.205721 -0.916087
2003-04-08 08:33:54 51°11.779 2°46.577 -999 3.512615 29.205721 -0.916087
2003-04-08 08:33:59 51°11.769 2°46.548 -999 3.512615 29.208095 -0.882377
2003-04-08 08:34:04 51°11.76 2°46.518 -999 3.51272 29.208473 -0.882377
2003-04-08 08:34:08 51°11.752 2°46.495 -999 3.51251 29.207717 -0.882377
2003-04-08 08:34:14 51°11.741 2°46.46 -999 3.51251 29.20831 -0.882377
2003-04-08 08:34:18 51°11.733 2°46.437 -999 3.51251 29.20653 -0.882377
2003-04-08 08:34:24 51°11.722 2°46.401 -999 3.51251 29.20653 -0.882377
2003-04-08 08:34:28 51°11.714 2°46.378 -999 3.512299 29.204586 -0.882377
2003-04-08 08:34:34 51°11.703 2°46.343 -999 3.512404 29.204965 -0.882377
2003-04-08 08:34:39 51°11.695 2°46.313 -999 3.512299 29.202806 -0.882377
2003-04-08 08:34:44 51°11.686 2°46.283 -999 3.512299 29.203399 -0.848668
2003-04-08 08:34:48 51°11.679 2°46.259 -999 3.512194 29.201834 -0.882377
2003-04-08 08:34:54 51°11.668 2°46.223 -999 3.512194 29.201834 -0.882377
2003-04-08 08:34:58 51°11.661 2°46.199 -999 3.512194 29.203021 -0.916087
2003-04-08 08:35:04 51°11.652 2°46.163 -999 3.512194 29.203615 -0.848668
2003-04-08 08:35:08 51°11.644 2°46.14 -999 3.511983 29.203451 -0.882377
2003-04-08 08:35:14 51°11.635 2°46.104 -999 3.512088 29.20561 -0.882377
2003-04-08 08:35:19 51°11.626 2°46.073 -999 3.512088 29.20561 -0.882377
2003-04-08 08:35:24 51°11.618 2°46.042 -999 3.512088 29.20561 -0.882377
2003-04-08 08:35:28 51°11.612 2°46.017 -999 3.511878 29.204854 -0.848668
2003-04-08 08:35:34 51°11.602 2°45.981 -999 3.511983 29.206419 -0.882377
2003-04-08 08:35:39 51°11.595 2°45.951 -999 3.511878 29.205447 -0.916087
2003-04-08 08:35:44 51°11.586 2°45.92 -999 3.511772 29.204475 -0.882377
2003-04-08 08:35:48 51°11.58 2°45.897 -999 3.511878 29.205447 -0.916087
2003-04-08 08:35:54 51°11.57 2°45.86 -999 3.511878 29.205447 -0.916087
2003-04-08 08:35:58 51°11.564 2°45.836 -999 3.511772 29.204475 -0.848668
2003-04-08 08:36:04 51°11.554 2°45.8 -999 3.511772 29.205069 -0.882377
2003-04-08 08:36:08 51°11.548 2°45.776 -999 3.511667 29.203503 -0.882377
2003-04-08 08:36:14 51°11.538 2°45.74 -999 3.511667 29.204691 -0.882377
2003-04-08 08:36:18 51°11.531 2°45.717 -999 3.511667 29.204691 -0.882377
2003-04-08 08:36:24 51°11.521 2°45.68 -999 3.511667 29.204691 -0.882377
2003-04-08 08:36:28 51°11.515 2°45.655 -999 3.511562 29.203719 -0.916087
2003-04-08 08:36:34 51°11.505 2°45.62 -999 3.511562 29.205499 -0.882377
2003-04-08 08:36:38 51°11.498 2°45.596 -999 3.511456 29.204528 -0.916087
2003-04-08 08:36:44 51°11.488 2°45.56 -999 3.511456 29.204528 -0.848668
2003-04-08 08:36:48 51°11.481 2°45.536 -999 3.511351 29.204149 -0.848668
2003-04-08 08:36:54 51°11.471 2°45.5 -999 3.511351 29.204149 -0.848668
2003-04-08 08:36:59 51°11.463 2°45.47 -999 3.511351 29.204149 -0.882377
2003-04-08 08:37:04 51°11.454 2°45.441 -999 3.511351 29.205336 -0.882377
2003-04-08 08:37:08 51°11.448 2°45.416 -999 3.511351 29.204743 -0.882377
2003-04-08 08:37:14 51°11.438 2°45.38 -999 3.511351 29.205336 -0.882377
2003-04-08 08:37:18 51°11.43 2°45.357 -999 3.511246 29.203771 -0.848668
2003-04-08 08:37:24 51°11.421 2°45.32 -999 3.511246 29.203771 -0.848668
2003-04-08 08:37:28 51°11.414 2°45.297 -999 3.511246 29.206146 -0.882377
2003-04-08 08:37:34 51°11.404 2°45.26 -999 3.511246 29.205552 -0.882377
2003-04-08 08:37:38 51°11.398 2°45.235 -999 3.511035 29.204201 -0.882377
2003-04-08 08:37:44 51°11.388 2°45.2 -999 3.511035 29.204795 -0.882377
2003-04-08 08:37:48 51°11.381 2°45.176 -999 3.51114 29.205767 -0.882377
2003-04-08 08:37:54 51°11.371 2°45.139 -999 3.51114 29.205767 -0.882377
2003-04-08 08:37:58 51°11.364 2°45.115 -999 3.51093 29.204417 -0.882377
2003-04-08 08:38:04 51°11.355 2°45.079 -999 3.511035 29.205389 -0.882377
2003-04-08 08:38:08 51°11.348 2°45.055 -999 3.510824 29.204632 -0.916087
2003-04-08 08:38:14 51°11.339 2°45.019 -999 3.51093 29.205011 -0.882377
2003-04-08 08:38:18 51°11.331 2°44.995 -999 3.51093 29.205011 -0.882377
2003-04-08 08:38:24 51°11.321 2°44.959 -999 3.51093 29.205011 -0.882377
2003-04-08 08:38:28 51°11.315 2°44.934 -999 3.510824 29.204632 -0.848668
2003-04-08 08:38:34 51°11.305 2°44.898 -999 3.510719 29.204848 -0.848668
2003-04-08 08:38:39 51°11.297 2°44.868 -999 3.510824 29.204632 -0.848668
2003-04-08 08:38:44 51°11.288 2°44.838 -999 3.510719 29.204848 -0.882377
2003-04-08 08:38:48 51°11.282 2°44.813 -999 3.510719 29.204848 -0.882377
2003-04-08 08:38:52 51°11.275 2°44.788 -999 3.510719 29.204848 -0.882377
2003-04-08 08:38:58 51°11.266 2°44.751 -999 3.510719 29.205441 -0.882377
2003-04-08 08:39:04 51°11.257 2°44.714 -999 3.510614 29.204469 -0.882377
2003-04-08 08:39:08 51°11.251 2°44.689 -999 3.510614 29.205063 -0.882377
2003-04-08 08:39:14 51°11.243 2°44.652 -999 3.510508 29.204091 -0.882377
2003-04-08 08:39:19 51°11.235 2°44.621 -999 3.510403 29.203713 -0.882377
2003-04-08 08:39:24 51°11.228 2°44.591 -999 3.510403 29.203713 -0.882377
2003-04-08 08:39:28 51°11.222 2°44.566 -999 3.510614 29.205657 -0.848668
2003-04-08 08:39:34 51°11.214 2°44.528 -999 3.510403 29.204306 -0.848668
2003-04-08 08:39:38 51°11.207 2°44.504 -999 3.510298 29.203928 -0.848668
2003-04-08 08:39:44 51°11.199 2°44.466 -999 3.510403 29.2049 -0.848668
2003-04-08 08:39:48 51°11.193 2°44.442 -999 3.510192 29.20355 -0.916087
2003-04-08 08:39:54 51°11.184 2°44.405 -999 3.510192 29.20355 -0.916087
2003-04-08 08:39:58 51°11.179 2°44.38 -999 3.510192 29.20355 -0.848668
2003-04-08 08:40:04 51°11.169 2°44.343 -999 3.510192 29.204737 -0.882377
2003-04-08 08:40:08 51°11.164 2°44.319 -999 3.510192 29.204143 -0.848668
2003-04-08 08:40:12 51°11.158 2°44.294 -999 3.510087 29.204359 -0.882377
2003-04-08 08:40:19 51°11.148 2°44.25 -999 3.510087 29.203765 -0.882377
2003-04-08 08:40:24 51°11.14 2°44.22 -999 3.510087 29.203765 -0.882377
2003-04-08 08:40:28 51°11.135 2°44.195 -999 3.509982 29.203387 -0.848668
2003-04-08 08:40:34 51°11.126 2°44.158 -999 3.509982 29.204574 -0.848668
2003-04-08 08:40:39 51°11.119 2°44.127 -999 3.509876 29.203008 -0.882377
2003-04-08 08:40:44 51°11.111 2°44.097 -999 3.509876 29.204196 -0.882377
2003-04-08 08:40:48 51°11.105 2°44.072 -999 3.509876 29.203602 -0.916087
2003-04-08 08:40:54 51°11.097 2°44.035 -999 3.509876 29.203602 -0.916087
2003-04-08 08:40:59 51°11.089 2°44.004 -999 3.509771 29.203224 -0.882377
2003-04-08 08:41:04 51°11.082 2°43.973 -999 3.509876 29.204196 -0.882377
2003-04-08 08:41:08 51°11.076 2°43.948 -999 3.509666 29.203439 -0.916087
2003-04-08 08:41:14 51°11.067 2°43.911 -999 3.509771 29.203224 -0.848668
2003-04-08 08:41:18 51°11.062 2°43.886 -999 3.50956 29.202467 -0.882377
2003-04-08 08:41:24 51°11.052 2°43.849 -999 3.50956 29.202467 -0.882377
2003-04-08 08:41:28 51°11.047 2°43.824 -999 3.50956 29.202467 -0.882377
2003-04-08 08:41:34 51°11.037 2°43.788 -999 3.509455 29.202682 -0.882377
2003-04-08 08:41:39 51°11.031 2°43.756 -999 3.509666 29.203439 -0.882377
2003-04-08 08:41:44 51°11.023 2°43.727 -999 3.509455 29.203276 -0.882377
2003-04-08 08:41:48 51°11.018 2°43.702 -999 3.50956 29.204843 -0.848668
2003-04-08 08:41:54 51°11.009 2°43.665 -999 3.50956 29.204843 -0.848668
2003-04-08 08:41:58 51°11.004 2°43.64 -999 3.50935 29.202304 -0.882377
2003-04-08 08:42:04 51°10.994 2°43.603 -999 3.50935 29.204086 -0.882377
2003-04-08 08:42:08 51°10.989 2°43.579 -999 3.50935 29.204086 -0.848668
2003-04-08 08:42:14 51°10.98 2°43.542 -999 3.509244 29.203114 -0.882377
2003-04-08 08:42:18 51°10.974 2°43.517 -999 3.509244 29.203114 -0.882377
2003-04-08 08:42:24 51°10.965 2°43.48 -999 3.509244 29.203114 -0.882377
2003-04-08 08:42:28 51°10.959 2°43.455 -999 3.509139 29.202141 -0.916087
2003-04-08 08:42:34 51°10.95 2°43.418 -999 3.509139 29.202141 -0.882377
2003-04-08 08:42:38 51°10.944 2°43.393 -999 3.509139 29.202141 -0.916087
2003-04-08 08:42:44 51°10.935 2°43.356 -999 3.509033 29.200575 -0.848668
2003-04-08 08:42:48 51°10.93 2°43.331 -999 3.509034 29.201763 -0.882377
2003-04-08 08:42:54 51°10.921 2°43.294 -999 3.509034 29.201763 -0.882377
2003-04-08 08:42:59 51°10.914 2°43.263 -999 3.509034 29.201763 -0.882377
2003-04-08 08:43:04 51°10.906 2°43.232 -999 3.508928 29.201384 -0.882377
2003-04-08 08:43:08 51°10.9 2°43.207 -999 3.508928 29.20079 -0.882377
2003-04-08 08:43:14 51°10.891 2°43.17 -999 3.508823 29.2016 -0.848668
2003-04-08 08:43:19 51°10.885 2°43.139 -999 3.508928 29.202572 -0.848668
2003-04-08 08:43:24 51°10.877 2°43.109 -999 3.508928 29.202572 -0.848668
2003-04-08 08:43:28 51°10.872 2°43.083 -999 3.508823 29.202194 -0.916087
2003-04-08 08:43:34 51°10.863 2°43.046 -999 3.508823 29.202788 -0.882377
2003-04-08 08:43:38 51°10.857 2°43.021 -999 3.508717 29.201815 -0.848668
2003-04-08 08:43:44 51°10.848 2°42.984 -999 3.508718 29.203003 -0.882377
2003-04-08 08:43:48 51°10.842 2°42.959 -999 3.508717 29.201815 -0.848668
2003-04-08 08:43:54 51°10.833 2°42.923 -999 3.508717 29.201815 -0.848668
2003-04-08 08:43:59 51°10.827 2°42.891 -999 3.508507 29.201652 -0.882377
2003-04-08 08:44:04 51°10.819 2°42.86 12.630478 3.508718 29.203003 -0.882377
2003-04-08 08:44:08 51°10.813 2°42.836 12.822591 3.508507 29.201652 -0.916087
2003-04-08 08:44:14 51°10.805 2°42.799 12.607986 3.508612 29.203813 -0.882377
2003-04-08 08:44:18 51°10.798 2°42.775 12.581517 3.508507 29.203435 -0.882377
2003-04-08 08:44:24 51°10.79 2°42.737 12.581517 3.508507 29.203435 -0.882377
2003-04-08 08:44:28 51°10.784 2°42.713 12.496313 3.508507 29.205218 -0.848668
2003-04-08 08:44:34 51°10.776 2°42.674 12.43139 3.508401 29.203056 -0.848668
2003-04-08 08:44:39 51°10.77 2°42.643 12.806772 3.508402 29.204245 -0.882377
2003-04-08 08:44:44 51°10.764 2°42.611 12.587696 3.508296 29.202678 -0.882377
2003-04-08 08:44:48 51°10.76 2°42.586 12.820389 3.508296 29.202084 -0.848668
2003-04-08 08:44:54 51°10.754 2°42.548 12.820389 3.508296 29.202084 -0.848668
2003-04-08 08:44:59 51°10.749 2°42.515 13.159398 3.508191 29.201111 -0.882377
2003-04-08 08:45:04 51°10.745 2°42.482 12.555579 3.508191 29.200517 -0.882377
2003-04-08 08:45:08 51°10.741 2°42.456 12.815041 3.508191 29.200517 -0.882377
2003-04-08 08:45:14 51°10.737 2°42.417 13.344736 3.508085 29.199544 -0.882377
2003-04-08 08:45:19 51°10.733 2°42.384 12.792027 3.50798 29.198571 -0.848668
2003-04-08 08:45:24 51°10.73 2°42.351 12.792027 3.50798 29.198571 -0.848668
2003-04-08 08:45:28 51°10.728 2°42.324 12.749213 3.508085 29.200138 -0.848668
2003-04-08 08:45:34 51°10.725 2°42.284 12.967222 3.50798 29.19976 -0.848668
2003-04-08 08:45:39 51°10.722 2°42.252 12.852109 3.507875 29.199381 -0.882377
2003-04-08 08:45:44 51°10.719 2°42.22 13.132745 3.507875 29.199975 -0.882377
2003-04-08 08:45:48 51°10.717 2°42.193 12.70097 3.507769 29.200191 -0.848668
2003-04-08 08:45:54 51°10.713 2°42.152 12.70097 3.507769 29.200191 -0.848668
2003-04-08 08:45:59 51°10.711 2°42.12 12.780922 3.508085 29.201327 -0.848668
2003-04-08 08:46:04 51°10.707 2°42.087 12.723971 3.507664 29.200407 -0.848668
2003-04-08 08:46:08 51°10.705 2°42.061 12.774491 3.507875 29.201758 -0.882377
2003-04-08 08:46:14 51°10.701 2°42.021 12.653548 3.507664 29.201001 -0.882377
2003-04-08 08:46:19 51°10.698 2°41.988 12.767745 3.507769 29.200785 -0.882377
2003-04-08 08:46:24 51°10.694 2°41.955 12.767745 3.507769 29.200785 -0.882377
2003-04-08 08:46:28 51°10.692 2°41.929 12.656476 3.507559 29.199434 -0.882377
2003-04-08 08:46:34 51°10.687 2°41.89 12.802367 3.507664 29.201595 -0.882377
2003-04-08 08:46:39 51°10.683 2°41.858 12.823805 3.507664 29.201595 -0.882377
2003-04-08 08:46:44 51°10.679 2°41.825 12.761224 3.507559 29.200028 -0.882377
2003-04-08 08:46:48 51°10.676 2°41.799 13.093237 3.507559 29.200622 -0.848668
2003-04-08 08:46:54 51°10.671 2°41.76 13.093237 3.507559 29.200622 -0.848668
2003-04-08 08:46:58 51°10.667 2°41.734 12.603658 3.507559 29.200622 -0.882377
2003-04-08 08:47:04 51°10.663 2°41.695 12.718525 3.507453 29.19965 -0.882377
2003-04-08 08:47:08 51°10.659 2°41.669 12.688274 3.507453 29.200838 -0.848668
2003-04-08 08:47:14 51°10.654 2°41.63 12.769364 3.507453 29.200244 -0.882377
2003-04-08 08:47:19 51°10.65 2°41.598 12.872677 3.507348 29.20046 -0.882377
2003-04-08 08:47:24 51°10.644 2°41.566 12.872677 3.507348 29.20046 -0.882377
2003-04-08 08:47:28 51°10.64 2°41.54 12.891893 3.507243 29.200081 -0.882377
2003-04-08 08:47:34 51°10.633 2°41.502 13.281347 3.507348 29.201648 -0.882377
2003-04-08 08:47:38 51°10.629 2°41.476 12.696648 3.507348 29.20046 -0.848668
2003-04-08 08:47:44 51°10.621 2°41.439 12.907109 3.507137 29.199702 -0.882377
2003-04-08 08:47:48 51°10.616 2°41.413 12.968657 3.507348 29.201648 -0.848668
2003-04-08 08:47:54 51°10.608 2°41.376 12.968657 3.507348 29.201648 -0.848668
2003-04-08 08:47:58 51°10.603 2°41.35 12.583817 3.507137 29.200297 -0.882377
2003-04-08 08:48:04 51°10.596 2°41.312 12.789464 3.507243 29.20127 -0.882377
2003-04-08 08:48:08 51°10.59 2°41.287 12.91438 3.507137 29.200297 -0.848668
2003-04-08 08:48:14 51°10.583 2°41.249 13.402852 3.507032 29.199324 -0.848668
2003-04-08 08:48:18 51°10.578 2°41.223 13.28157 3.507032 29.199918 -0.882377
2003-04-08 08:48:24 51°10.57 2°41.185 13.28157 3.507032 29.199918 -0.882377
2003-04-08 08:48:28 51°10.565 2°41.16 13.156625 3.507243 29.20127 -0.882377
2003-04-08 08:48:34 51°10.557 2°41.122 12.606453 3.506927 29.198945 -0.882377
2003-04-08 08:48:38 51°10.552 2°41.097 13.017961 3.507032 29.200512 -0.848668
2003-04-08 08:48:44 51°10.545 2°41.059 13.51929 3.506927 29.200134 -0.848668
2003-04-08 08:48:48 51°10.54 2°41.034 12.860777 3.506927 29.200134 -0.882377
2003-04-08 08:48:54 51°10.532 2°40.996 12.860777 3.506927 29.200134 -0.882377
2003-04-08 08:48:59 51°10.526 2°40.964 13.007476 3.506821 29.199755 -0.882377
2003-04-08 08:49:04 51°10.52 2°40.932 13.01254 3.506927 29.201323 -0.882377
2003-04-08 08:49:08 51°10.515 2°40.907 12.810098 3.506927 29.201917 -0.848668
2003-04-08 08:49:14 51°10.508 2°40.868 12.919406 3.506927 29.201323 -0.882377
2003-04-08 08:49:18 51°10.502 2°40.843 13.101248 3.506716 29.199971 -0.882377
2003-04-08 08:49:24 51°10.495 2°40.805 13.101248 3.506716 29.199971 -0.882377
2003-04-08 08:49:28 51°10.489 2°40.78 12.470568 3.506716 29.20116 -0.882377
2003-04-08 08:49:34 51°10.48 2°40.743 13.053886 3.506611 29.200187 -0.848668
2003-04-08 08:49:39 51°10.474 2°40.711 12.949418 3.506716 29.200566 -0.848668
2003-04-08 08:49:44 51°10.466 2°40.68 12.945202 3.506611 29.201376 -0.882377
2003-04-08 08:49:48 51°10.461 2°40.655 13.130061 3.506611 29.200781 -0.848668
2003-04-08 08:49:54 51°10.451 2°40.618 13.130061 3.506611 29.200781 -0.848668
2003-04-08 08:49:58 51°10.446 2°40.592 12.733151 3.506505 29.200403 -0.882377
2003-04-08 08:50:04 51°10.437 2°40.555 12.892477 3.506505 29.202186 -0.882377
2003-04-08 08:50:08 51°10.431 2°40.53 12.838946 3.506611 29.202565 -0.882377
2003-04-08 08:50:14 51°10.422 2°40.493 12.702366 3.5064 29.200619 -0.882377
2003-04-08 08:50:18 51°10.416 2°40.468 12.789464 3.5064 29.200619 -0.882377
2003-04-08 08:50:24 51°10.406 2°40.431 12.789464 3.5064 29.200619 -0.882377
2003-04-08 08:50:28 51°10.401 2°40.406 13.183269 3.506295 29.20024 -0.882377
2003-04-08 08:50:34 51°10.391 2°40.369 12.702051 3.5064 29.201808 -0.882377
2003-04-08 08:50:39 51°10.384 2°40.337 13.223482 3.506505 29.201592 -0.882377
2003-04-08 08:50:44 51°10.376 2°40.307 12.499971 3.506189 29.199861 -0.882377
2003-04-08 08:50:48 51°10.37 2°40.282 12.886865 3.5064 29.202997 -0.882377
2003-04-08 08:50:54 51°10.36 2°40.246 12.886865 3.5064 29.202997 -0.882377
2003-04-08 08:50:59 51°10.353 2°40.214 13.083435 3.506189 29.200456 -0.848668
2003-04-08 08:51:04 51°10.346 2°40.183 13.28282 3.506189 29.201645 -0.882377
2003-04-08 08:51:08 51°10.34 2°40.158 13.3545 3.506189 29.20224 -0.882377
2003-04-08 08:51:14 51°10.331 2°40.121 13.41911 3.506084 29.201267 -0.848668
2003-04-08 08:51:18 51°10.325 2°40.097 13.318246 3.505979 29.199699 -0.848668
2003-04-08 08:51:24 51°10.315 2°40.06 13.318246 3.505979 29.199699 -0.848668
2003-04-08 08:51:29 51°10.308 2°40.029 13.243089 3.505979 29.200293 -0.848668
2003-04-08 08:51:34 51°10.301 2°39.998 13.322572 3.505979 29.200293 -0.882377
2003-04-08 08:51:38 51°10.294 2°39.974 13.351156 3.505873 29.19932 -0.882377
2003-04-08 08:51:44 51°10.286 2°39.936 13.218613 3.505873 29.19932 -0.916087
2003-04-08 08:51:48 51°10.279 2°39.912 13.761132 3.505873 29.19932 -0.882377
2003-04-08 08:51:54 51°10.27 2°39.875 13.761132 3.505873 29.19932 -0.882377
2003-04-08 08:51:59 51°10.263 2°39.844 13.723945 3.505768 29.197752 -0.848668
2003-04-08 08:52:04 51°10.254 2°39.814 12.563745 3.505768 29.198941 -0.882377
2003-04-08 08:52:08 51°10.249 2°39.789 13.85682 3.505873 29.19932 -0.882377
2003-04-08 08:52:14 51°10.239 2°39.752 13.402629 3.505663 29.199157 -0.848668
2003-04-08 08:52:18 51°10.235 2°39.727 12.465644 3.505768 29.200131 -0.848668
2003-04-08 08:52:24 51°10.225 2°39.69 12.465644 3.505768 29.200131 -0.848668
2003-04-08 08:52:28 51°10.219 2°39.666 13.791212 3.505557 29.198779 -0.882377
2003-04-08 08:52:34 51°10.21 2°39.629 13.239382 3.505557 29.199373 -0.882377
2003-04-08 08:52:39 51°10.202 2°39.599 12.66008 3.505557 29.199373 -0.882377
2003-04-08 08:52:44 51°10.195 2°39.567 12.447661 3.505452 29.1984 -0.882377
2003-04-08 08:52:48 51°10.188 2°39.543 12.538252 3.505557 29.198779 -0.882377
2003-04-08 08:52:54 51°10.18 2°39.506 12.538252 3.505557 29.198779 -0.882377
2003-04-08 08:52:58 51°10.173 2°39.481 12.664675 3.505452 29.198995 -0.882377
2003-04-08 08:53:04 51°10.164 2°39.444 13.299643 3.505452 29.1984 -0.848668
2003-04-08 08:53:08 51°10.158 2°39.419 13.336799 3.505347 29.198616 -0.848668
2003-04-08 08:53:14 51°10.149 2°39.381 12.422801 3.505347 29.198616 -0.882377
2003-04-08 08:53:19 51°10.142 2°39.35 13.847262 3.505347 29.198021 -0.511574
2003-04-08 08:53:24 51°10.134 2°39.319 13.847262 3.505347 29.198021 -0.511574
2003-04-08 08:53:28 51°10.128 2°39.294 12.20005 3.505241 29.198237 -0.814958
2003-04-08 08:53:34 51°10.119 2°39.257 13.207534 3.505347 29.199211 -0.848668
2003-04-08 08:53:38 51°10.113 2°39.232 13.187023 3.505241 29.198237 -0.848668
2003-04-08 08:53:44 51°10.104 2°39.195 13.198776 3.505241 29.198832 -0.882377
2003-04-08 08:53:48 51°10.098 2°39.17 12.979148 3.505136 29.197264 -0.814958
2003-04-08 08:53:54 51°10.089 2°39.134 12.979148 3.505136 29.197264 -0.814958
2003-04-08 08:53:58 51°10.083 2°39.109 13.378747 3.505136 29.199048 -0.848668
2003-04-08 08:54:04 51°10.074 2°39.071 13.315614 3.505241 29.199427 -0.848668
2003-04-08 08:54:08 51°10.068 2°39.047 13.144239 3.504925 29.19829 -0.848668
2003-04-08 08:54:14 51°10.059 2°39.009 12.545292 3.505031 29.199264 -0.882377
2003-04-08 08:54:19 51°10.051 2°38.978 13.436567 3.504925 29.200075 -0.848668
2003-04-08 08:54:24 51°10.044 2°38.946 13.436567 3.504925 29.200075 -0.848668
2003-04-08 08:54:29 51°10.036 2°38.916 13.467416 3.505031 29.200453 -0.848668
2003-04-08 08:54:34 51°10.029 2°38.884 13.500387 3.504925 29.19948 -0.814958
2003-04-08 08:54:38 51°10.022 2°38.859 13.292593 3.50482 29.199696 -0.848668
2003-04-08 08:54:44 51°10.013 2°38.82 13.531918 3.50482 29.197912 -0.882377
2003-04-08 08:54:48 51°10.007 2°38.795 13.43158 3.50482 29.199101 -0.848668
2003-04-08 08:54:54 51°9.998 2°38.759 13.43158 3.50482 29.199101 -0.848668
2003-04-08 08:54:59 51°9.99 2°38.728 13.199715 3.50482 29.198506 -0.814958
2003-04-08 08:55:04 51°9.983 2°38.696 12.8513 3.504715 29.196344 -0.848668
2003-04-08 08:55:08 51°9.976 2°38.672 12.317428 3.504715 29.197533 -0.848668
2003-04-08 08:55:14 51°9.967 2°38.635 12.761269 3.504715 29.196938 -0.848668
2003-04-08 08:55:18 51°9.961 2°38.609 12.804524 3.504609 29.197749 -0.848668
2003-04-08 08:55:24 51°9.952 2°38.573 12.804524 3.504609 29.197749 -0.848668
2003-04-08 08:55:28 51°9.946 2°38.549 13.223929 3.504609 29.197749 -0.848668
2003-04-08 08:55:34 51°9.937 2°38.512 13.696096 3.504609 29.198344 -0.848668
2003-04-08 08:55:39 51°9.93 2°38.48 13.016976 3.504504 29.19737 -0.848668
2003-04-08 08:55:44 51°9.921 2°38.45 13.151304 3.504399 29.198776 -0.814958
2003-04-08 08:55:48 51°9.916 2°38.425 13.240231 3.504504 29.19856 -0.814958
2003-04-08 08:55:54 51°9.906 2°38.39 13.240231 3.504504 29.19856 -0.814958
2003-04-08 08:55:59 51°9.899 2°38.36 12.81185 3.504399 29.199371 -0.848668
2003-04-08 08:56:04 51°9.891 2°38.33 13.589029 3.504399 29.199371 -0.848668
2003-04-08 08:56:08 51°9.885 2°38.306 13.512574 3.504399 29.199371 -0.848668
2003-04-08 08:56:14 51°9.875 2°38.27 12.650665 3.504293 29.200182 -0.814958
2003-04-08 08:56:18 51°9.869 2°38.246 12.916354 3.504399 29.200561 -0.848668
2003-04-08 08:56:24 51°9.859 2°38.21 12.916354 3.504399 29.200561 -0.848668
2003-04-08 08:56:28 51°9.852 2°38.187 13.624959 3.504188 29.198018 -0.848668
2003-04-08 08:56:34 51°9.842 2°38.151 13.58703 3.504188 29.198613 -0.814958
2003-04-08 08:56:39 51°9.834 2°38.121 12.631604 3.504188 29.198018 -0.848668
2003-04-08 08:56:44 51°9.826 2°38.09 13.580099 3.504188 29.196234 -0.848668
2003-04-08 08:56:49 51°9.817 2°38.061 12.735671 3.504083 29.195855 -0.848668
2003-04-08 08:56:54 51°9.809 2°38.03 12.735671 3.504083 29.195855 -0.848668
2003-04-08 08:56:59 51°9.8 2°38 12.790409 3.504083 29.197045 -0.848668
2003-04-08 08:57:04 51°9.792 2°37.969 13.35655 3.504188 29.196234 -0.848668
2003-04-08 08:57:08 51°9.785 2°37.945 12.703581 3.503872 29.195098 -0.848668
2003-04-08 08:57:14 51°9.776 2°37.908 12.463882 3.503977 29.196666 -0.882377
2003-04-08 08:57:19 51°9.767 2°37.878 12.458099 3.503872 29.195692 -0.848668
2003-04-08 08:57:24 51°9.759 2°37.847 12.458099 3.503872 29.195692 -0.848668
2003-04-08 08:57:28 51°9.752 2°37.824 13.211242 3.503872 29.198072 -0.882377
2003-04-08 08:57:34 51°9.742 2°37.787 13.658251 3.503977 29.198451 -0.814958
2003-04-08 08:57:39 51°9.734 2°37.757 13.123396 3.503767 29.197693 -0.848668
2003-04-08 08:57:44 51°9.726 2°37.726 13.514887 3.503872 29.198667 -0.848668
2003-04-08 08:57:48 51°9.719 2°37.702 12.831938 3.503661 29.197314 -0.848668
2003-04-08 08:57:54 51°9.709 2°37.665 12.831938 3.503661 29.197314 -0.848668
2003-04-08 08:57:58 51°9.703 2°37.641 12.756276 3.503767 29.198288 -0.848668
2003-04-08 08:58:04 51°9.693 2°37.604 13.680615 3.503661 29.196719 -0.848668
2003-04-08 08:58:08 51°9.686 2°37.58 13.640009 3.503767 29.197098 -0.814958
2003-04-08 08:58:14 51°9.675 2°37.544 12.723116 3.503556 29.194556 -0.814958
2003-04-08 08:58:18 51°9.67 2°37.519 13.636857 3.503661 29.197314 -0.848668
2003-04-08 08:58:24 51°9.657 2°37.483 13.636857 3.503661 29.197314 -0.848668
2003-04-08 08:58:28 51°9.652 2°37.457 13.228351 3.503556 29.194556 -0.882377
2003-04-08 08:58:34 51°9.641 2°37.421 13.507237 3.503451 29.197152 -0.848668
2003-04-08 08:58:38 51°9.635 2°37.396 13.481968 3.503661 29.198504 -0.882377
2003-04-08 08:58:44 51°9.624 2°37.36 13.778278 3.503451 29.198342 -0.848668
2003-04-08 08:58:48 51°9.618 2°37.336 13.082227 3.503345 29.197368 -0.848668
2003-04-08 08:58:54 51°9.607 2°37.3 13.082227 3.503345 29.197368 -0.848668
2003-04-08 08:58:59 51°9.599 2°37.269 13.394477 3.503345 29.196178 -0.848668
2003-04-08 08:59:04 51°9.59 2°37.24 13.391179 3.503345 29.194988 -0.848668
2003-04-08 08:59:08 51°9.583 2°37.216 13.210215 3.50324 29.194014 -0.848668
2003-04-08 08:59:14 51°9.574 2°37.18 13.536365 3.503345 29.193798 -0.882377
2003-04-08 08:59:19 51°9.565 2°37.149 13.443691 3.503134 29.191256 -0.848668
2003-04-08 08:59:24 51°9.557 2°37.118 13.443691 3.503134 29.191256 -0.848668
2003-04-08 08:59:28 51°9.55 2°37.094 13.650396 3.50324 29.192825 -0.848668
2003-04-08 08:59:34 51°9.541 2°37.057 13.045869 3.50324 29.192825 -0.814958
2003-04-08 08:59:39 51°9.532 2°37.027 12.970719 3.503134 29.193041 -0.814958
2003-04-08 08:59:44 51°9.524 2°36.996 13.577966 3.503134 29.193041 -0.848668
2003-04-08 08:59:48 51°9.517 2°36.972 12.771028 3.503029 29.193257 -0.848668
2003-04-08 08:59:54 51°9.508 2°36.934 12.771028 3.503029 29.193257 -0.848668
2003-04-08 08:59:58 51°9.501 2°36.91 12.827085 3.503135 29.19542 -0.848668
2003-04-08 09:00:04 51°9.491 2°36.874 13.576811 3.502924 29.194068 -0.848668
2003-04-08 09:00:08 51°9.484 2°36.849 13.023517 3.502924 29.195258 -0.814958
2003-04-08 09:00:14 51°9.474 2°36.812 13.607507 3.503029 29.196232 -0.814958
2003-04-08 09:00:18 51°9.467 2°36.788 13.329039 3.502924 29.195258 -0.848668
2003-04-08 09:00:24 51°9.457 2°36.751 13.329039 3.502924 29.195258 -0.848668
2003-04-08 09:00:28 51°9.45 2°36.727 13.612303 3.502924 29.195853 -0.848668
2003-04-08 09:00:34 51°9.441 2°36.69 13.444047 3.502924 29.195258 -0.814958
2003-04-08 09:00:39 51°9.432 2°36.659 12.71695 3.502924 29.194663 -0.848668
2003-04-08 09:00:44 51°9.423 2°36.629 13.044481 3.502818 29.194879 -0.848668
2003-04-08 09:00:48 51°9.418 2°36.604 13.452238 3.503029 29.196232 -0.814958
2003-04-08 09:00:52 51°9.411 2°36.579 13.452238 3.503029 29.196232 -0.814958
2003-04-08 09:00:58 51°9.401 2°36.543 12.834858 3.502818 29.194879 -0.848668
2003-04-08 09:01:04 51°9.391 2°36.506 13.203781 3.502818 29.194879 -0.848668
2003-04-08 09:01:08 51°9.384 2°36.481 12.582103 3.502818 29.195474 -0.848668
2003-04-08 09:01:14 51°9.374 2°36.444 13.399555 3.502713 29.1945 -0.848668
2003-04-08 09:01:19 51°9.366 2°36.414 13.065752 3.502713 29.1945 -0.814958
2003-04-08 09:01:24 51°9.357 2°36.383 13.065752 3.502713 29.1945 -0.814958
2003-04-08 09:01:28 51°9.351 2°36.358 13.006445 3.502819 29.196069 -0.882377
2003-04-08 09:01:34 51°9.341 2°36.321 13.521247 3.502713 29.195095 -0.882377
2003-04-08 09:01:38 51°9.335 2°36.296 13.47556 3.502713 29.195095 -0.882377
2003-04-08 09:01:44 51°9.325 2°36.259 12.611998 3.502713 29.19569 -0.814958
2003-04-08 09:01:48 51°9.318 2°36.234 13.562857 3.502713 29.196285 -0.848668
2003-04-08 09:01:54 51°9.308 2°36.197 13.562857 3.502713 29.196285 -0.848668
2003-04-08 09:01:58 51°9.302 2°36.173 13.063558 3.502608 29.195311 -0.848668
2003-04-08 09:02:04 51°9.291 2°36.137 12.797107 3.502608 29.195906 -0.814958
2003-04-08 09:02:08 51°9.285 2°36.112 12.853905 3.502502 29.193742 -0.848668
2003-04-08 09:02:14 51°9.274 2°36.075 13.684785 3.502502 29.196123 -0.882377
2003-04-08 09:02:18 51°9.268 2°36.051 13.103441 3.502608 29.196501 -0.848668
2003-04-08 09:02:24 51°9.258 2°36.014 13.103441 3.502608 29.196501 -0.848668
2003-04-08 09:02:28 51°9.252 2°35.988 13.47783 3.502502 29.196123 -0.882377
2003-04-08 09:02:34 51°9.242 2°35.951 13.483792 3.502502 29.196123 -0.848668
2003-04-08 09:02:38 51°9.235 2°35.926 12.972423 3.502397 29.195149 -0.848668
2003-04-08 09:02:44 51°9.225 2°35.89 13.270769 3.502397 29.194553 -0.882377
2003-04-08 09:02:48 51°9.218 2°35.865 13.74828 3.502292 29.19477 -0.848668
2003-04-08 09:02:54 51°9.208 2°35.828 13.74828 3.502292 29.19477 -0.848668
2003-04-08 09:02:59 51°9.2 2°35.796 13.389174 3.502397 29.195744 -0.814958
2003-04-08 09:03:04 51°9.192 2°35.766 12.988966 3.502292 29.195365 -0.848668
2003-04-08 09:03:08 51°9.185 2°35.741 13.875755 3.502292 29.19477 -0.848668
2003-04-08 09:03:14 51°9.175 2°35.704 13.390155 3.502292 29.19596 -0.848668
2003-04-08 09:03:19 51°9.166 2°35.673 13.478898 3.502186 29.194986 -0.848668
2003-04-08 09:03:24 51°9.158 2°35.642 13.478898 3.502186 29.194986 -0.848668
2003-04-08 09:03:28 51°9.151 2°35.617 13.409846 3.502081 29.194607 -0.848668
2003-04-08 09:03:34 51°9.141 2°35.58 13.416483 3.502186 29.195581 -0.848668
2003-04-08 09:03:39 51°9.132 2°35.549 13.481612 3.502186 29.196176 -0.848668
2003-04-08 09:03:44 51°9.124 2°35.518 13.273983 3.502186 29.196176 -0.848668
2003-04-08 09:03:48 51°9.117 2°35.493 13.350353 3.502081 29.195202 -0.848668
2003-04-08 09:03:54 51°9.107 2°35.456 13.350353 3.502081 29.195202 -0.848668
2003-04-08 09:03:58 51°9.1 2°35.432 13.458426 3.502081 29.195202 -0.848668
2003-04-08 09:04:04 51°9.09 2°35.394 13.616877 3.502081 29.195202 -0.848668
2003-04-08 09:04:08 51°9.084 2°35.369 13.356996 3.502081 29.195797 -0.848668
2003-04-08 09:04:14 51°9.073 2°35.332 13.438749 3.501976 29.195419 -0.848668
2003-04-08 09:04:19 51°9.065 2°35.301 13.402273 3.502081 29.195797 -0.814958
2003-04-08 09:04:24 51°9.057 2°35.27 13.402273 3.502081 29.195797 -0.814958
2003-04-08 09:04:28 51°9.05 2°35.245 13.299866 3.501976 29.195419 -0.848668
2003-04-08 09:04:34 51°9.04 2°35.208 13.553035 3.50187 29.195635 -0.848668
2003-04-08 09:04:38 51°9.034 2°35.182 13.197436 3.501976 29.195419 -0.848668
2003-04-08 09:04:44 51°9.023 2°35.145 13.383783 3.50187 29.195635 -0.848668
2003-04-08 09:04:48 51°9.017 2°35.12 13.351156 3.501765 29.194661 -0.848668
2003-04-08 09:04:54 51°9.006 2°35.083 13.351156 3.501765 29.194661 -0.848668
2003-04-08 09:04:58 51°9 2°35.058 13.128585 3.50187 29.195635 -0.848668
2003-04-08 09:05:04 51°8.99 2°35.02 13.430288 3.501765 29.195256 -0.848668
2003-04-08 09:05:08 51°8.983 2°34.996 13.062842 3.50187 29.196826 -0.848668
2003-04-08 09:05:14 51°8.973 2°34.958 13.657408 3.501765 29.195256 -0.882377
2003-04-08 09:05:18 51°8.966 2°34.934 13.625891 3.50166 29.194877 -0.848668
2003-04-08 09:05:24 51°8.956 2°34.896 13.625891 3.50166 29.194877 -0.848668
2003-04-08 09:05:29 51°8.948 2°34.866 13.522002 3.501765 29.196447 -0.848668
2003-04-08 09:05:34 51°8.939 2°34.835 13.416349 3.501765 29.196447 -0.882377
2003-04-08 09:05:39 51°8.93 2°34.804 13.45393 3.50166 29.196663 -0.848668
2003-04-08 09:05:44 51°8.922 2°34.772 13.310885 3.50166 29.196068 -0.848668
2003-04-08 09:05:48 51°8.915 2°34.747 13.534631 3.501554 29.195093 -0.882377
2003-04-08 09:05:54 51°8.905 2°34.71 13.534631 3.501554 29.195093 -0.882377
2003-04-08 09:05:59 51°8.896 2°34.68 13.534986 3.501554 29.195689 -0.848668
2003-04-08 09:06:04 51°8.888 2°34.648 13.319272 3.501554 29.195093 -0.848668
2003-04-08 09:06:08 51°8.881 2°34.623 13.540588 3.501449 29.19531 -0.814958
2003-04-08 09:06:14 51°8.871 2°34.586 13.437457 3.501554 29.196284 -0.848668
2003-04-08 09:06:18 51°8.864 2°34.561 13.222768 3.501449 29.196501 -0.848668
2003-04-08 09:06:24 51°8.853 2°34.523 13.222768 3.501449 29.196501 -0.848668
2003-04-08 09:06:28 51°8.846 2°34.499 13.33778 3.501344 29.195526 -0.814958
2003-04-08 09:06:34 51°8.836 2°34.461 13.447341 3.501449 29.196501 -0.882377
2003-04-08 09:06:38 51°8.829 2°34.436 13.344602 3.501344 29.195526 -0.882377
2003-04-08 09:06:44 51°8.819 2°34.399 13.342908 3.501344 29.196122 -0.848668
2003-04-08 09:06:48 51°8.812 2°34.374 13.459538 3.501238 29.194552 -0.848668
2003-04-08 09:06:54 51°8.802 2°34.336 13.459538 3.501238 29.194552 -0.848668
2003-04-08 09:06:59 51°8.793 2°34.305 13.792763 3.501344 29.196122 -0.814958
2003-04-08 09:07:04 51°8.784 2°34.274 13.319227 3.501238 29.195743 -0.848668
2003-04-08 09:07:08 51°8.778 2°34.249 13.616256 3.501133 29.194173 -0.848668
2003-04-08 09:07:14 51°8.768 2°34.212 13.511196 3.501344 29.197313 -0.814958
2003-04-08 09:07:18 51°8.76 2°34.187 13.405703 3.501133 29.195364 -0.848668
2003-04-08 09:07:24 51°8.75 2°34.15 13.405703 3.501133 29.195364 -0.848668
2003-04-08 09:07:28 51°8.743 2°34.125 13.517022 3.501133 29.196555 -0.848668
2003-04-08 09:07:34 51°8.733 2°34.088 13.485394 3.501133 29.195959 -0.848668
2003-04-08 09:07:39 51°8.723 2°34.057 -999 3.501028 29.196176 -0.612702
2003-04-08 09:07:44 51°8.716 2°34.025 -999 3.501133 29.196555 -0.848668
2003-04-08 09:07:48 51°8.708 2°34.001 -999 3.501028 29.196176 -0.882377
2003-04-08 09:07:54 51°8.698 2°33.964 -999 3.501028 29.196176 -0.882377
2003-04-08 09:07:59 51°8.689 2°33.933 -999 3.501028 29.19558 -0.848668
2003-04-08 09:08:04 51°8.68 2°33.903 -999 3.501028 29.196771 -0.848668
2003-04-08 09:08:08 51°8.673 2°33.879 -999 3.500922 29.195201 -0.848668
2003-04-08 09:08:14 51°8.663 2°33.841 -999 3.500817 29.194822 -0.848668
2003-04-08 09:08:18 51°8.656 2°33.817 -999 3.500922 29.196392 -0.848668
2003-04-08 09:08:24 51°8.646 2°33.779 -999 3.500922 29.196392 -0.848668
2003-04-08 09:08:28 51°8.639 2°33.754 -999 3.500922 29.195797 -0.848668
2003-04-08 09:08:34 51°8.628 2°33.717 -999 3.500817 29.195418 -0.848668
2003-04-08 09:08:38 51°8.621 2°33.692 -999 3.500712 29.194443 -0.848668
2003-04-08 09:08:44 51°8.611 2°33.653 -999 3.500817 29.195418 -0.848668
2003-04-08 09:08:48 51°8.604 2°33.628 -999 3.500712 29.194443 -0.848668
2003-04-08 09:08:54 51°8.595 2°33.59 -999 3.500712 29.194443 -0.848668
2003-04-08 09:08:59 51°8.586 2°33.56 -999 3.500606 29.19466 -0.882377
2003-04-08 09:09:04 51°8.578 2°33.53 -999 3.500817 29.196609 -0.882377
2003-04-08 09:09:08 51°8.571 2°33.508 -999 3.500712 29.19623 -0.848668
2003-04-08 09:09:14 51°8.564 2°33.476 -999 3.500606 29.195851 -0.882377
2003-04-08 09:09:19 51°8.558 2°33.452 -999 3.500606 29.195255 -0.814958
2003-04-08 09:09:24 51°8.553 2°33.428 -999 3.500606 29.195255 -0.814958
2003-04-08 09:09:28 51°8.55 2°33.41 -999 3.500606 29.195851 -0.814958
2003-04-08 09:09:34 51°8.545 2°33.384 -999 3.500501 29.195472 -0.882377
2003-04-08 09:09:38 51°8.542 2°33.368 -999 3.500606 29.196447 -0.848668
2003-04-08 09:09:44 51°8.539 2°33.344 -999 3.500501 29.196068 -0.848668
2003-04-08 09:09:48 51°8.538 2°33.328 -999 3.500396 29.195093 -0.848668
2003-04-08 09:09:54 51°8.536 2°33.306 -999 3.500396 29.195093 -0.848668
2003-04-08 09:09:59 51°8.536 2°33.289 -999 3.500396 29.195689 -0.882377
2003-04-08 09:10:04 51°8.536 2°33.27 -999 3.500396 29.195689 -0.848668
2003-04-08 09:10:08 51°8.536 2°33.256 -999 3.500396 29.196284 -0.882377
2003-04-08 09:10:14 51°8.536 2°33.238 -999 3.50029 29.19531 -0.848668
2003-04-08 09:10:19 51°8.537 2°33.223 -999 3.500396 29.19688 -0.848668
2003-04-08 09:10:24 51°8.538 2°33.209 -999 3.500396 29.19688 -0.848668
2003-04-08 09:10:28 51°8.539 2°33.198 -999 3.50029 29.195905 -0.882377
2003-04-08 09:10:32 51°8.541 2°33.188 -999 3.50029 29.196501 -0.882377
2003-04-08 09:10:38 51°8.544 2°33.173 -999 3.50029 29.196501 -0.848668
2003-04-08 09:10:44 51°8.547 2°33.158 -999 3.500185 29.195526 -0.814958
2003-04-08 09:10:48 51°8.549 2°33.148 -999 3.499974 29.194173 -0.848668
2003-04-08 09:10:54 51°8.553 2°33.135 -999 3.499974 29.194173 -0.848668
2003-04-08 09:10:58 51°8.556 2°33.127 -999 3.50008 29.195147 -0.848668
2003-04-08 09:11:04 51°8.559 2°33.115 -999 3.500185 29.196122 -0.882377
2003-04-08 09:11:08 51°8.56 2°33.108 -999 3.499974 29.194173 -0.882377
2003-04-08 09:11:14 51°8.564 2°33.099 -999 3.499974 29.195364 -0.848668
2003-04-08 09:11:18 51°8.567 2°33.094 -999 3.499974 29.19596 -0.882377
2003-04-08 09:11:24 51°8.571 2°33.086 -999 3.499974 29.19596 -0.882377
2003-04-08 09:11:28 51°8.574 2°33.081 -999 3.499974 29.19596 -0.848668
2003-04-08 09:11:34 51°8.579 2°33.073 -999 3.50008 29.19753 -0.882377
2003-04-08 09:11:39 51°8.584 2°33.068 -999 3.499869 29.195581 -0.848668
2003-04-08 09:11:44 51°8.589 2°33.063 -999 3.499869 29.195581 -0.848668
2003-04-08 09:11:48 51°8.592 2°33.06 -999 3.499869 29.196772 -0.882377
2003-04-08 09:11:54 51°8.598 2°33.056 -999 3.499869 29.196772 -0.882377
2003-04-08 09:11:58 51°8.601 2°33.053 -999 3.499764 29.195202 -0.848668
2003-04-08 09:12:04 51°8.606 2°33.05 -999 3.499869 29.196176 -0.848668
2003-04-08 09:12:08 51°8.61 2°33.048 -999 3.499658 29.194823 -0.848668
2003-04-08 09:12:14 51°8.614 2°33.047 -999 3.499869 29.196176 -0.814958
2003-04-08 09:12:19 51°8.618 2°33.047 -999 3.499764 29.195202 -0.848668
2003-04-08 09:12:24 51°8.621 2°33.047 -999 3.499764 29.195202 -0.848668
2003-04-08 09:12:28 51°8.623 2°33.047 -999 3.499658 29.193631 -0.882377
2003-04-08 09:12:34 51°8.626 2°33.047 -999 3.499658 29.194227 -0.882377
2003-04-08 09:12:39 51°8.629 2°33.048 -999 3.499764 29.195797 -0.882377
2003-04-08 09:12:44 51°8.631 2°33.049 -999 3.499658 29.194823 -0.882377
2003-04-08 09:12:48 51°8.633 2°33.051 -999 3.499553 29.194444 -0.848668
2003-04-08 09:12:54 51°8.636 2°33.053 -999 3.499553 29.194444 -0.848668
2003-04-08 09:12:59 51°8.638 2°33.056 -999 3.499658 29.196014 -0.848668
2003-04-08 09:13:04 51°8.638 2°33.059 -999 3.499553 29.195635 -0.848668
2003-04-08 09:13:08 51°8.638 2°33.061 -999 3.499553 29.196231 -0.882377
2003-04-08 09:13:14 51°8.639 2°33.065 -999 3.499553 29.196231 -0.848668
2003-04-08 09:13:19 51°8.64 2°33.068 -999 3.499448 29.195256 -0.848668
2003-04-08 09:13:24 51°8.64 2°33.07 -999 3.499448 29.195256 -0.848668
2003-04-08 09:13:29 51°8.641 2°33.072 -999 3.499448 29.196448 -0.848668
2003-04-08 09:13:34 51°8.642 2°33.074 -999 3.499448 29.195852 -0.848668
2003-04-08 09:13:38 51°8.643 2°33.076 -999 3.499448 29.195256 -0.814958
2003-04-08 09:13:44 51°8.643 2°33.077 -999 3.499448 29.195852 -0.848668
2003-04-08 09:13:48 51°8.643 2°33.077 -999 3.499448 29.195852 -0.848668
2003-04-08 09:13:54 51°8.642 2°33.077 -999 3.499448 29.195852 -0.848668